BY2772 / YL-LCT 7700 Squawk Report (15th of May, 2022)

Time Lat Lon Altitude Heading Speed Vertical Rate
2022-05-15 06:42:01 GMT 53.365322 -2.284470 0 45 4 0
2022-05-15 06:41:59 GMT 53.365299 -2.284509 0 45 4 0
2022-05-15 06:41:47 GMT 53.365238 -2.284611 0 45 0 0
2022-05-15 06:41:40 GMT 53.365227 -2.284631 0 45 0 0
2022-05-15 06:39:29 GMT 53.361797 -2.280350 0 315 11 0
2022-05-15 06:39:15 GMT 53.361305 -2.279542 0 315 11 0
2022-05-15 06:39:02 GMT 53.360806 -2.278714 0 323 12 0
2022-05-15 06:38:59 GMT 53.360748 -2.278633 0 329 11 0
2022-05-15 06:38:26 GMT 53.359119 -2.278472 0 5 11 0
2022-05-15 06:38:15 GMT 53.358547 -2.278564 0 5 12 0
2022-05-15 06:38:07 GMT 53.358158 -2.278643 0 5 11 0
2022-05-15 06:37:58 GMT 53.357605 -2.278512 0 5 11 0
2022-05-15 06:37:48 GMT 53.357151 -2.278819 0 5 11 0
2022-05-15 06:37:19 GMT 53.355938 -2.279800 0 50 11 0
2022-05-15 06:37:08 GMT 53.355625 -2.280370 0 47 11 0
2022-05-15 06:36:57 GMT 53.355194 -2.281036 0 30 9 0
2022-05-15 06:36:24 GMT 53.353947 -2.281664 0 5 9 0
2022-05-15 06:36:17 GMT 53.353729 -2.281703 0 5 8 0
2022-05-15 06:36:07 GMT 53.353489 -2.281743 0 5 4 0
2022-05-15 06:35:58 GMT 53.353344 -2.281763 0 5 3 0
2022-05-15 06:35:47 GMT 53.353237 -2.281782 0 5 0 0
2022-05-15 06:35:37 GMT 53.353168 -2.281801 0 5 3 0
2022-05-15 06:35:27 GMT 53.352879 -2.281844 0 5 10 0
2022-05-15 06:35:17 GMT 53.352470 -2.281919 0 5 12 0
2022-05-15 06:35:07 GMT 53.351921 -2.282017 0 5 12 0
2022-05-15 06:34:50 GMT 53.351074 -2.281605 0 323 12 0
2022-05-15 06:34:46 GMT 53.350925 -2.281429 0 320 12 0
2022-05-15 06:34:38 GMT 53.350586 -2.280956 0 320 11 0
2022-05-15 06:34:32 GMT 53.350365 -2.280673 0 320 11 0
2022-05-15 06:34:24 GMT 53.350033 -2.280212 0 320 10 0
2022-05-15 06:34:20 GMT 53.349876 -2.280006 0 323 11 0
2022-05-15 06:34:13 GMT 53.349632 -2.279722 0 348 7 0
2022-05-15 06:33:47 GMT 53.349483 -2.279663 0 11 0 0
2022-05-15 06:33:36 GMT 53.349472 -2.279663 0 14 2 0
2022-05-15 06:33:31 GMT 53.349434 -2.279663 0 16 2 0
2022-05-15 06:33:26 GMT 53.349400 -2.279663 0 22 2 0
2022-05-15 06:33:16 GMT 53.349277 -2.279722 0 36 7 0
2022-05-15 06:33:06 GMT 53.349072 -2.280036 0 47 7 0
2022-05-15 06:32:51 GMT 53.348763 -2.280526 0 28 7 0
2022-05-15 06:32:21 GMT 53.348591 -2.280703 0 22 0 0
2022-05-15 06:32:06 GMT 53.348583 -2.280693 0 22 0 0
2022-05-15 06:31:46 GMT 53.348591 -2.280703 0 22 0 0
2022-05-15 06:31:31 GMT 53.348583 -2.280693 0 22 0 0
2022-05-15 06:31:21 GMT 53.348598 -2.280693 0 22 0 0
2022-05-15 06:30:41 GMT 53.348591 -2.280703 0 22 0 0
2022-05-15 06:29:46 GMT 53.348598 -2.280693 0 22 0 0
2022-05-15 06:28:56 GMT 53.348591 -2.280703 0 22 0 0
2022-05-15 06:28:27 GMT 53.348598 -2.280693 0 22 0 0
2022-05-15 06:28:16 GMT 53.348591 -2.280703 0 22 0 0
2022-05-15 06:28:11 GMT 53.348598 -2.280693 0 22 0 0
2022-05-15 06:28:01 GMT 53.348591 -2.280703 0 22 0 0
2022-05-15 06:27:36 GMT 53.348583 -2.280693 0 22 0 0
2022-05-15 06:26:25 GMT 53.348591 -2.280703 0 22 0 0
2022-05-15 06:25:55 GMT 53.348598 -2.280693 0 22 0 0
2022-05-15 06:25:50 GMT 53.348591 -2.280703 0 22 0 0
2022-05-15 06:25:39 GMT 53.348598 -2.280693 0 22 0 0
2022-05-15 06:25:24 GMT 53.348591 -2.280703 0 22 0 0
2022-05-15 06:24:54 GMT 53.348576 -2.280693 0 22 0 0
2022-05-15 06:24:14 GMT 53.348576 -2.280673 0 22 0 0
2022-05-15 06:24:09 GMT 53.348568 -2.280683 0 22 0 0
2022-05-15 06:23:59 GMT 53.348576 -2.280673 0 22 0 0
2022-05-15 06:23:39 GMT 53.348568 -2.280683 0 22 0 0
2022-05-15 06:23:24 GMT 53.348576 -2.280673 0 22 0 0
2022-05-15 06:23:04 GMT 53.348576 -2.280693 0 22 0 0
2022-05-15 06:23:00 GMT 53.348576 -2.280673 0 22 0 0
2022-05-15 06:22:39 GMT 53.348576 -2.280693 0 22 0 0
2022-05-15 06:21:49 GMT 53.348568 -2.280683 0 22 0 0
2022-05-15 06:20:59 GMT 53.348579 -2.280683 0 22 0 0
2022-05-15 06:20:49 GMT 53.348568 -2.280683 0 22 0 0
2022-05-15 06:20:39 GMT 53.348579 -2.280683 0 22 0 0
2022-05-15 06:20:29 GMT 53.348568 -2.280683 0 22 0 0
2022-05-15 06:20:09 GMT 53.348576 -2.280693 0 22 0 0
2022-05-15 06:19:49 GMT 53.348568 -2.280683 0 22 0 0
2022-05-15 06:19:04 GMT 53.348557 -2.280683 0 22 0 0
2022-05-15 06:18:28 GMT 53.348560 -2.280673 0 22 0 0
2022-05-15 06:18:18 GMT 53.348557 -2.280683 0 22 0 0
2022-05-15 06:18:04 GMT 53.348568 -2.280683 0 22 0 0
2022-05-15 06:17:39 GMT 53.348560 -2.280673 0 22 0 0
2022-05-15 06:17:36 GMT 53.348576 -2.280673 0 22 0 0
2022-05-15 06:17:09 GMT 53.348568 -2.280683 0 22 0 0
2022-05-15 06:16:54 GMT 53.348560 -2.280673 0 22 0 0
2022-05-15 06:16:34 GMT 53.348568 -2.280683 0 22 0 0
2022-05-15 06:16:09 GMT 53.348576 -2.280673 0 22 0 0
2022-05-15 06:16:04 GMT 53.348576 -2.280693 0 22 0 0
2022-05-15 06:15:29 GMT 53.348576 -2.280673 0 22 0 0
2022-05-15 06:15:05 GMT 53.348568 -2.280683 0 22 0 0
2022-05-15 06:14:45 GMT 53.348576 -2.280673 0 22 0 0
2022-05-15 06:14:34 GMT 53.348560 -2.280673 0 22 0 0
2022-05-15 06:14:26 GMT 53.348534 -2.280703 0 22 4 0
2022-05-15 06:14:16 GMT 53.348328 -2.280840 0 19 7 0
2022-05-15 06:14:05 GMT 53.347939 -2.281076 0 22 10 0
2022-05-15 06:13:55 GMT 53.347538 -2.281339 0 19 10 0
2022-05-15 06:13:46 GMT 53.347095 -2.281622 0 22 10 0
2022-05-15 06:13:35 GMT 53.346588 -2.281978 0 25 14 0
2022-05-15 06:13:24 GMT 53.345943 -2.282551 0 33 16 0
2022-05-15 06:13:15 GMT 53.345421 -2.283194 0 42 18 0
2022-05-15 06:13:05 GMT 53.344734 -2.284389 0 50 23 0
2022-05-15 06:12:55 GMT 53.343929 -2.286065 0 50 33 0
2022-05-15 06:12:44 GMT 53.342789 -2.288374 0 50 46 0
2022-05-15 06:12:34 GMT 53.341103 -2.291821 50 50 72 0
2022-05-15 06:12:21 GMT 53.337799 -2.298575 50 51 110 -64
2022-05-15 06:12:12 GMT 53.334339 -2.305836 25 51 135 -128
2022-05-15 06:12:07 GMT 53.331875 -2.310926 125 50 140 -704
2022-05-15 06:12:03 GMT 53.330894 -2.312945 150 51 140 -704
2022-05-15 06:12:00 GMT 53.329102 -2.316546 200 51 140 -832
2022-05-15 06:11:55 GMT 53.327316 -2.320312 250 51 140 -832
2022-05-15 06:11:52 GMT 53.326332 -2.322397 275 50 140 -768
2022-05-15 06:11:48 GMT 53.324158 -2.326826 375 50 140 -960
2022-05-15 06:11:43 GMT 53.322609 -2.329990 425 51 139 -768
2022-05-15 06:11:40 GMT 53.321365 -2.332633 500 51 138 0
2022-05-15 06:11:37 GMT 53.320419 -2.334676 500 51 138 -576
2022-05-15 06:11:34 GMT 53.318893 -2.337891 550 50 137 -576
2022-05-15 06:11:29 GMT 53.317062 -2.341579 575 50 136 -640
2022-05-15 06:11:28 GMT 53.316650 -2.342431 575 50 136 -640
2022-05-15 06:11:24 GMT 53.315094 -2.345660 625 51 137 -576
2022-05-15 06:11:20 GMT 53.313484 -2.348974 675 50 138 -704
2022-05-15 06:11:18 GMT 53.312759 -2.350446 675 50 139 -768
2022-05-15 06:11:16 GMT 53.311890 -2.352173 750 50 139 -768
2022-05-15 06:11:12 GMT 53.310242 -2.355547 750 50 139 -768
2022-05-15 06:11:10 GMT 53.309437 -2.357214 775 51 138 -832
2022-05-15 06:11:09 GMT 53.308598 -2.358991 825 51 139 -832
2022-05-15 06:11:05 GMT 53.306076 -2.364336 900 51 139 -832
2022-05-15 06:11:02 GMT 53.305710 -2.365121 925 50 139 -832
2022-05-15 06:10:59 GMT 53.305115 -2.366377 925 50 139 -832
2022-05-15 06:10:57 GMT 53.304245 -2.368103 950 50 140 -768
2022-05-15 06:10:56 GMT 53.303802 -2.369008 975 50 140 -768
2022-05-15 06:10:54 GMT 53.302689 -2.371164 1,050 51 140 -768
2022-05-15 06:10:51 GMT 53.301567 -2.373532 1,050 51 140 -768
2022-05-15 06:10:49 GMT 53.300869 -2.374986 1,075 51 142 -768
2022-05-15 06:10:48 GMT 53.300545 -2.375713 1,075 51 142 -768
2022-05-15 06:10:46 GMT 53.299622 -2.377598 1,100 51 142 -768
2022-05-15 06:10:45 GMT 53.299240 -2.378378 1,125 51 143 -768
2022-05-15 06:10:44 GMT 53.298820 -2.379267 1,125 51 143 -768
2022-05-15 06:10:42 GMT 53.297974 -2.381051 1,150 51 143 -768
2022-05-15 06:10:41 GMT 53.297565 -2.381933 1,175 51 143 -768
2022-05-15 06:10:39 GMT 53.296680 -2.383710 1,200 50 144 -704
2022-05-15 06:10:38 GMT 53.296280 -2.384583 1,200 50 144 -704
2022-05-15 06:10:37 GMT 53.295914 -2.385367 1,225 50 144 -704
2022-05-15 06:10:36 GMT 53.295097 -2.387022 1,250 51 143 -704
2022-05-15 06:10:34 GMT 53.294540 -2.388192 1,250 51 143 -704
2022-05-15 06:10:32 GMT 53.293884 -2.389526 1,275 51 143 -640
2022-05-15 06:10:31 GMT 53.293396 -2.390547 1,275 51 143 -640
2022-05-15 06:10:29 GMT 53.292755 -2.391802 1,300 51 143 -640
2022-05-15 06:10:28 GMT 53.291744 -2.393889 1,325 51 143 -640
2022-05-15 06:10:27 GMT 53.291744 -2.393889 1,325 51 143 -640
2022-05-15 06:10:26 GMT 53.290859 -2.395747 1,350 50 142 -640
2022-05-15 06:10:24 GMT 53.290489 -2.396474 1,350 50 142 -640
2022-05-15 06:10:23 GMT 53.290024 -2.397443 1,375 50 142 -640
2022-05-15 06:10:22 GMT 53.288727 -2.400120 1,400 50 142 -640
2022-05-15 06:10:20 GMT 53.288727 -2.400120 1,400 50 144 -640
2022-05-15 06:10:19 GMT 53.287880 -2.401886 1,425 51 143 -704
2022-05-15 06:10:17 GMT 53.287491 -2.402710 1,425 51 143 -704
2022-05-15 06:10:16 GMT 53.287136 -2.403502 1,450 50 144 -704
2022-05-15 06:10:14 GMT 53.286255 -2.405221 1,475 50 144 -768
2022-05-15 06:10:12 GMT 53.285648 -2.406491 1,475 50 144 -768
2022-05-15 06:10:11 GMT 53.284973 -2.407811 1,500 50 144 -768
2022-05-15 06:10:10 GMT 53.284531 -2.408752 1,525 50 144 -768
2022-05-15 06:10:09 GMT 53.283646 -2.410530 1,550 50 144 -832
2022-05-15 06:10:06 GMT 53.282806 -2.412226 1,575 50 144 -832
2022-05-15 06:10:05 GMT 53.281410 -2.415134 1,600 50 144 -832
2022-05-15 06:10:03 GMT 53.281410 -2.415134 1,625 50 144 -832
2022-05-15 06:10:02 GMT 53.281036 -2.415894 1,650 50 144 -896
2022-05-15 06:10:01 GMT 53.280201 -2.417558 1,675 50 142 -896
2022-05-15 06:09:59 GMT 53.279781 -2.418527 1,675 50 142 -896
2022-05-15 06:09:58 GMT 53.278519 -2.421151 1,725 51 142 -896
2022-05-15 06:09:56 GMT 53.278519 -2.421151 1,725 51 142 -896
2022-05-15 06:09:54 GMT 53.277695 -2.422878 1,750 51 142 -896
2022-05-15 06:09:53 GMT 53.277267 -2.423697 1,775 51 141 -896
2022-05-15 06:09:52 GMT 53.276917 -2.424369 1,775 51 141 -832
2022-05-15 06:09:51 GMT 53.276524 -2.425313 1,800 51 141 -832
2022-05-15 06:09:49 GMT 53.275780 -2.426848 1,825 51 141 -832
2022-05-15 06:09:48 GMT 53.275314 -2.427665 1,850 51 140 -832
2022-05-15 06:09:47 GMT 53.274895 -2.428625 1,850 51 140 -768
2022-05-15 06:09:46 GMT 53.274490 -2.429470 1,875 51 140 -768
2022-05-15 06:09:45 GMT 53.273712 -2.431117 1,900 51 140 -768
2022-05-15 06:09:43 GMT 53.273266 -2.432018 1,900 51 140 -768
2022-05-15 06:09:41 GMT 53.272427 -2.433795 1,925 51 140 -704
2022-05-15 06:09:40 GMT 53.271961 -2.434683 1,950 51 140 -704
2022-05-15 06:09:39 GMT 53.271587 -2.435491 1,950 51 140 -704
2022-05-15 06:09:38 GMT 53.270702 -2.437349 1,975 51 140 -640
2022-05-15 06:09:35 GMT 53.270054 -2.438722 2,000 51 140 -640
2022-05-15 06:09:34 GMT 53.269169 -2.440500 2,025 50 139 -640
2022-05-15 06:09:32 GMT 53.268795 -2.441308 2,025 50 139 -640
2022-05-15 06:09:31 GMT 53.267990 -2.442967 2,050 50 138 -576
2022-05-15 06:09:29 GMT 53.267532 -2.443830 2,075 50 138 -576
2022-05-15 06:09:28 GMT 53.267075 -2.444772 2,075 50 138 -576
2022-05-15 06:09:27 GMT 53.266651 -2.445589 2,075 50 138 -576
2022-05-15 06:09:25 GMT 53.265957 -2.447043 2,100 50 138 -576
2022-05-15 06:09:24 GMT 53.265381 -2.448225 2,125 50 138 -640
2022-05-15 06:09:22 GMT 53.264557 -2.449873 2,125 50 138 -640
2022-05-15 06:09:21 GMT 53.264236 -2.450579 2,150 50 138 -704
2022-05-15 06:09:20 GMT 53.263824 -2.451442 2,150 50 138 -704
2022-05-15 06:09:19 GMT 53.263023 -2.453021 2,175 50 138 -768
2022-05-15 06:09:16 GMT 53.262604 -2.453829 2,200 50 138 -768
2022-05-15 06:09:15 GMT 53.262177 -2.454738 2,200 50 138 -768
2022-05-15 06:09:13 GMT 53.261345 -2.456414 2,225 50 138 -768
2022-05-15 06:09:11 GMT 53.260555 -2.458029 2,250 50 138 -768
2022-05-15 06:09:10 GMT 53.260162 -2.458819 2,275 51 138 -768
2022-05-15 06:09:09 GMT 53.259766 -2.459645 2,275 50 139 -768
2022-05-15 06:09:07 GMT 53.258926 -2.461341 2,300 51 138 -704
2022-05-15 06:09:06 GMT 53.258507 -2.462230 2,325 50 139 -704
2022-05-15 06:09:05 GMT 53.257690 -2.463920 2,325 51 138 -704
2022-05-15 06:09:03 GMT 53.257298 -2.464734 2,350 51 138 -704
2022-05-15 06:09:02 GMT 53.256866 -2.465567 2,375 51 138 -704
2022-05-15 06:09:00 GMT 53.256084 -2.467158 2,400 51 138 -704
2022-05-15 06:08:59 GMT 53.255676 -2.468079 2,400 51 138 -704
2022-05-15 06:08:58 GMT 53.255295 -2.468854 2,425 51 138 -704
2022-05-15 06:08:57 GMT 53.254486 -2.470511 2,425 50 139 -704
2022-05-15 06:08:55 GMT 53.254074 -2.471296 2,450 50 139 -704
2022-05-15 06:08:54 GMT 53.253712 -2.472085 2,475 51 140 -704
2022-05-15 06:08:52 GMT 53.252930 -2.473729 2,500 51 140 -768
2022-05-15 06:08:51 GMT 53.252316 -2.474913 2,500 51 140 -768
2022-05-15 06:08:50 GMT 53.252083 -2.475478 2,525 51 140 -768
2022-05-15 06:08:48 GMT 53.251244 -2.477175 2,525 51 140 -768
2022-05-15 06:08:47 GMT 53.250828 -2.478063 2,550 51 140 -832
2022-05-15 06:08:46 GMT 53.249954 -2.479850 2,575 51 140 -832
2022-05-15 06:08:44 GMT 53.249542 -2.480713 2,600 51 140 -832
2022-05-15 06:08:43 GMT 53.249195 -2.481456 2,600 51 140 -832
2022-05-15 06:08:41 GMT 53.248314 -2.483314 2,625 51 140 -832
2022-05-15 06:08:40 GMT 53.247986 -2.483960 2,650 51 140 -832
2022-05-15 06:08:38 GMT 53.247116 -2.485814 2,675 51 140 -832
2022-05-15 06:08:37 GMT 53.246731 -2.486545 2,675 51 140 -832
2022-05-15 06:08:36 GMT 53.246311 -2.487434 2,700 51 141 -832
2022-05-15 06:08:35 GMT 53.245422 -2.489267 2,725 51 141 -896
2022-05-15 06:08:33 GMT 53.244820 -2.490504 2,750 50 142 -896
2022-05-15 06:08:31 GMT 53.244213 -2.491796 2,775 50 142 -832
2022-05-15 06:08:30 GMT 53.243179 -2.493818 2,800 50 143 -768
2022-05-15 06:08:28 GMT 53.242821 -2.494704 2,825 50 143 -768
2022-05-15 06:08:27 GMT 53.242401 -2.495512 2,825 50 144 -704
2022-05-15 06:08:26 GMT 53.241608 -2.497047 2,850 50 142 -640
2022-05-15 06:08:24 GMT 53.241142 -2.498016 2,850 50 142 -576
2022-05-15 06:08:23 GMT 53.240662 -2.498997 2,875 50 142 -448
2022-05-15 06:08:22 GMT 53.239838 -2.500724 2,875 50 142 -192
2022-05-15 06:08:20 GMT 53.239422 -2.501571 2,875 50 142 -128
2022-05-15 06:08:19 GMT 53.238583 -2.503267 2,875 50 141 0
2022-05-15 06:08:17 GMT 53.238350 -2.503833 2,875 50 141 64
2022-05-15 06:08:16 GMT 53.237789 -2.504883 2,875 50 141 64
2022-05-15 06:08:15 GMT 53.236675 -2.507145 2,875 50 142 192
2022-05-15 06:08:13 GMT 53.236675 -2.507145 2,875 50 142 192
2022-05-15 06:08:11 GMT 53.235809 -2.508885 2,850 50 144 192
2022-05-15 06:08:10 GMT 53.235371 -2.509811 2,850 50 145 192
2022-05-15 06:08:09 GMT 53.234951 -2.510699 2,850 50 145 128
2022-05-15 06:08:07 GMT 53.233974 -2.512638 2,850 51 145 0
2022-05-15 06:08:06 GMT 53.233521 -2.513593 2,850 51 145 0
2022-05-15 06:08:05 GMT 53.232697 -2.515241 2,850 51 145 0
2022-05-15 06:08:03 GMT 53.232239 -2.516183 2,850 51 145 0
2022-05-15 06:08:01 GMT 53.231598 -2.517596 2,850 51 145 0
2022-05-15 06:07:59 GMT 53.230682 -2.519479 2,850 51 145 0
2022-05-15 06:07:58 GMT 53.230297 -2.520312 2,850 50 145 -64
2022-05-15 06:07:57 GMT 53.229691 -2.521524 2,850 50 145 -64
2022-05-15 06:07:56 GMT 53.229317 -2.522332 2,850 50 145 -64
2022-05-15 06:07:54 GMT 53.228481 -2.524028 2,875 51 145 -64
2022-05-15 06:07:53 GMT 53.228073 -2.524894 2,875 51 145 -64
2022-05-15 06:07:52 GMT 53.227249 -2.526620 2,875 51 145 -64
2022-05-15 06:07:50 GMT 53.226791 -2.527562 2,875 51 145 -64
2022-05-15 06:07:49 GMT 53.226288 -2.528503 2,875 51 145 -64
2022-05-15 06:07:48 GMT 53.225510 -2.530151 2,875 51 145 0
2022-05-15 06:07:46 GMT 53.225098 -2.531015 2,875 50 144 0
2022-05-15 06:07:45 GMT 53.224293 -2.532591 2,875 50 143 64
2022-05-15 06:07:42 GMT 53.223499 -2.534287 2,875 50 143 64
2022-05-15 06:07:40 GMT 53.222488 -2.536351 2,875 50 143 0
2022-05-15 06:07:38 GMT 53.220795 -2.539804 2,875 50 145 -192
2022-05-15 06:07:36 GMT 53.220795 -2.539804 2,875 50 146 -384
2022-05-15 06:07:35 GMT 53.220333 -2.540669 2,875 50 146 -384
2022-05-15 06:07:33 GMT 53.219604 -2.542158 2,900 50 146 -448
2022-05-15 06:07:32 GMT 53.219193 -2.543021 2,925 50 148 -512
2022-05-15 06:07:30 GMT 53.217270 -2.546788 2,950 50 149 -704
2022-05-15 06:07:28 GMT 53.217270 -2.546788 2,950 50 149 -768
2022-05-15 06:07:27 GMT 53.216354 -2.548671 2,975 51 150 -960
2022-05-15 06:07:25 GMT 53.215942 -2.549534 3,000 51 150 -960
2022-05-15 06:07:23 GMT 53.215260 -2.550928 3,025 50 150 -896
2022-05-15 06:07:21 GMT 53.214386 -2.552752 3,050 50 150 -960
2022-05-15 06:07:20 GMT 53.213444 -2.554644 3,075 50 149 -960
2022-05-15 06:07:19 GMT 53.213444 -2.554644 3,100 50 149 -960
2022-05-15 06:07:17 GMT 53.212467 -2.556745 3,125 50 149 -960
2022-05-15 06:07:16 GMT 53.212097 -2.557460 3,150 50 149 -960
2022-05-15 06:07:15 GMT 53.211227 -2.559265 3,175 50 150 -960
2022-05-15 06:07:13 GMT 53.210743 -2.560218 3,175 50 150 -960
2022-05-15 06:07:12 GMT 53.210312 -2.561149 3,200 50 150 -960
2022-05-15 06:07:10 GMT 53.209488 -2.562803 3,225 51 151 -960
2022-05-15 06:07:07 GMT 53.208557 -2.564742 3,250 51 151 -960
2022-05-15 06:07:06 GMT 53.208138 -2.565631 3,275 50 152 -960
2022-05-15 06:07:05 GMT 53.207672 -2.566519 3,300 50 152 -960
2022-05-15 06:07:03 GMT 53.206787 -2.568368 3,350 51 152 -1024
2022-05-15 06:07:02 GMT 53.205460 -2.571036 3,350 50 153 -1024
2022-05-15 06:07:00 GMT 53.205460 -2.571036 3,375 51 154 -1024
2022-05-15 06:06:59 GMT 53.205067 -2.571932 3,400 51 155 -1024
2022-05-15 06:06:58 GMT 53.204552 -2.572982 3,425 50 155 -1024
2022-05-15 06:06:56 GMT 53.203667 -2.574840 3,500 51 156 -1024
2022-05-15 06:06:54 GMT 53.202736 -2.576698 3,500 51 159 -1024
2022-05-15 06:06:51 GMT 53.201618 -2.579041 3,525 51 159 -1024
2022-05-15 06:06:50 GMT 53.200687 -2.580979 3,550 51 160 -960
2022-05-15 06:06:49 GMT 53.200272 -2.581868 3,575 51 160 -960
2022-05-15 06:06:47 GMT 53.199326 -2.583827 3,625 51 162 -960
2022-05-15 06:06:44 GMT 53.197990 -2.586553 3,650 50 163 -1024
2022-05-15 06:06:42 GMT 53.196964 -2.588654 3,700 50 164 -1024
2022-05-15 06:06:41 GMT 53.196487 -2.589713 3,725 50 164 -1024
2022-05-15 06:06:39 GMT 53.195755 -2.591125 3,725 50 164 -1024
2022-05-15 06:06:38 GMT 53.195244 -2.592208 3,750 50 164 -960
2022-05-15 06:06:37 GMT 53.193558 -2.595598 3,800 50 166 -896
2022-05-15 06:06:35 GMT 53.193558 -2.595598 3,800 50 166 -832
2022-05-15 06:06:34 GMT 53.193146 -2.596462 3,825 50 166 -768
2022-05-15 06:06:32 GMT 53.191635 -2.599601 3,850 50 166 -512
2022-05-15 06:06:29 GMT 53.190353 -2.602190 3,875 50 168 -256
2022-05-15 06:06:27 GMT 53.189850 -2.603132 3,875 50 170 -64
2022-05-15 06:06:25 GMT 53.188797 -2.605251 3,875 49 171 -64
2022-05-15 06:06:24 GMT 53.188293 -2.606271 3,875 50 173 -64
2022-05-15 06:06:23 GMT 53.187748 -2.607395 3,875 50 174 -64
2022-05-15 06:06:21 GMT 53.186722 -2.609414 3,875 50 176 -128
2022-05-15 06:06:20 GMT 53.186234 -2.610430 3,875 50 178 -128
2022-05-15 06:06:19 GMT 53.184536 -2.613857 3,875 51 181 -192
2022-05-15 06:06:17 GMT 53.184536 -2.613857 3,875 51 181 -192
2022-05-15 06:06:16 GMT 53.183990 -2.614982 3,900 51 182 -192
2022-05-15 06:06:14 GMT 53.183090 -2.616846 3,900 51 186 -192
2022-05-15 06:06:12 GMT 53.181789 -2.619593 3,900 51 186 -192
2022-05-15 06:06:11 GMT 53.181229 -2.620724 3,900 50 186 -128
2022-05-15 06:06:09 GMT 53.180374 -2.622437 3,900 50 189 -64
2022-05-15 06:06:08 GMT 53.179825 -2.623535 3,900 50 191 64
2022-05-15 06:06:06 GMT 53.178726 -2.625811 3,900 50 192 128
2022-05-15 06:06:05 GMT 53.178062 -2.627186 3,900 50 195 192
2022-05-15 06:06:04 GMT 53.177505 -2.628317 3,900 50 196 192
2022-05-15 06:06:03 GMT 53.176895 -2.629499 3,900 50 198 128
2022-05-15 06:06:01 GMT 53.175690 -2.631953 3,900 50 200 0
2022-05-15 06:06:00 GMT 53.175179 -2.633003 3,900 50 201 -128
2022-05-15 06:05:58 GMT 53.173691 -2.635934 3,900 50 203 -256
2022-05-15 06:05:56 GMT 53.172897 -2.637607 3,900 50 203 -448
2022-05-15 06:05:55 GMT 53.172272 -2.638838 3,925 51 206 -768
2022-05-15 06:05:53 GMT 53.170990 -2.641427 3,950 51 206 -768
2022-05-15 06:05:52 GMT 53.170338 -2.642858 3,950 51 206 -768
2022-05-15 06:05:51 GMT 53.168839 -2.645900 3,975 51 207 -832
2022-05-15 06:05:50 GMT 53.168839 -2.645900 4,000 51 207 -960
2022-05-15 06:05:49 GMT 53.168243 -2.647156 4,000 51 207 -1024
2022-05-15 06:05:46 GMT 53.166595 -2.650609 4,050 51 208 -1024
2022-05-15 06:05:45 GMT 53.164799 -2.654329 4,100 51 208 -1024
2022-05-15 06:05:43 GMT 53.164799 -2.654329 4,100 51 208 -1024
2022-05-15 06:05:40 GMT 53.163162 -2.657750 4,150 51 209 -960
2022-05-15 06:05:39 GMT 53.162018 -2.660182 4,175 50 209 -960
2022-05-15 06:05:37 GMT 53.161118 -2.662003 4,200 50 209 -1024
2022-05-15 06:05:36 GMT 53.160515 -2.663215 4,225 50 209 -1024
2022-05-15 06:05:34 GMT 53.159409 -2.665519 4,250 50 209 -960
2022-05-15 06:05:33 GMT 53.158886 -2.666608 4,300 51 209 -960
2022-05-15 06:05:31 GMT 53.156158 -2.672346 4,325 52 209 -1024
2022-05-15 06:05:29 GMT 53.156158 -2.672346 4,325 52 209 -1024
2022-05-15 06:05:27 GMT 53.155289 -2.674308 4,350 52 209 -1024
2022-05-15 06:05:26 GMT 53.154648 -2.675656 4,375 53 210 -1024
2022-05-15 06:05:24 GMT 53.153439 -2.678321 4,400 53 209 -1024
2022-05-15 06:05:23 GMT 53.152786 -2.679775 4,450 53 210 -1024
2022-05-15 06:05:22 GMT 53.152222 -2.680978 4,450 53 210 -1024
2022-05-15 06:05:20 GMT 53.150940 -2.683803 4,475 52 210 -1024
2022-05-15 06:05:19 GMT 53.150646 -2.684542 4,500 52 210 -1024
2022-05-15 06:05:18 GMT 53.150024 -2.685922 4,500 52 210 -1024
2022-05-15 06:05:17 GMT 53.148178 -2.689954 4,550 52 210 -1024
2022-05-15 06:05:15 GMT 53.148178 -2.689954 4,550 52 210 -1024
2022-05-15 06:05:14 GMT 53.147572 -2.691246 4,575 52 211 -1024
2022-05-15 06:05:13 GMT 53.146362 -2.693848 4,600 53 211 -1024
2022-05-15 06:05:11 GMT 53.145756 -2.695205 4,625 53 211 -1024
2022-05-15 06:05:10 GMT 53.145103 -2.696659 4,650 53 210 -1024
2022-05-15 06:05:08 GMT 53.144127 -2.698921 4,675 54 211 -1024
2022-05-15 06:05:07 GMT 53.143291 -2.700698 4,700 54 211 -1024
2022-05-15 06:05:05 GMT 53.142174 -2.703364 4,725 54 211 -1024
2022-05-15 06:05:04 GMT 53.141647 -2.704599 4,750 55 211 -1024
2022-05-15 06:05:02 GMT 53.140503 -2.707267 4,775 55 210 -960
2022-05-15 06:05:01 GMT 53.140045 -2.708522 4,800 56 211 -896
2022-05-15 06:05:00 GMT 53.139473 -2.709907 4,800 56 211 -896
2022-05-15 06:04:59 GMT 53.138306 -2.712838 4,850 57 209 -768
2022-05-15 06:04:56 GMT 53.137344 -2.715428 4,850 58 209 -384
2022-05-15 06:04:55 GMT 53.136353 -2.718066 4,875 59 208 -64
2022-05-15 06:04:53 GMT 53.135887 -2.719439 4,875 60 208 0
2022-05-15 06:04:52 GMT 53.134918 -2.722334 4,875 62 207 0
2022-05-15 06:04:50 GMT 53.134460 -2.723746 4,875 62 207 0
2022-05-15 06:04:49 GMT 53.134048 -2.725159 4,875 63 207 0
2022-05-15 06:04:47 GMT 53.133186 -2.728083 4,875 65 206 0
2022-05-15 06:04:46 GMT 53.132767 -2.729632 4,875 67 205 0
2022-05-15 06:04:44 GMT 53.131668 -2.734026 4,875 69 205 0
2022-05-15 06:04:42 GMT 53.131393 -2.735360 4,875 70 205 0
2022-05-15 06:04:41 GMT 53.131119 -2.736694 4,875 72 205 0
2022-05-15 06:04:40 GMT 53.130535 -2.739716 4,875 73 204 0
2022-05-15 06:04:38 GMT 53.130249 -2.741167 4,875 75 204 0
2022-05-15 06:04:37 GMT 53.130020 -2.742785 4,875 75 204 0
2022-05-15 06:04:36 GMT 53.129559 -2.745693 4,875 77 204 0
2022-05-15 06:04:33 GMT 53.129185 -2.748925 4,875 79 203 0
2022-05-15 06:04:32 GMT 53.128811 -2.752156 4,875 80 203 0
2022-05-15 06:04:30 GMT 53.128693 -2.753566 4,875 81 203 0
2022-05-15 06:04:29 GMT 53.128532 -2.755387 4,875 82 203 0
2022-05-15 06:04:26 GMT 53.128189 -2.759609 4,875 83 203 0
2022-05-15 06:04:24 GMT 53.127975 -2.762981 4,875 84 204 0
2022-05-15 06:04:23 GMT 53.127914 -2.764474 4,875 84 203 0
2022-05-15 06:04:22 GMT 53.127647 -2.769363 4,875 85 204 0
2022-05-15 06:04:20 GMT 53.127647 -2.769363 4,875 87 205 64
2022-05-15 06:04:18 GMT 53.127602 -2.772675 4,875 88 205 64
2022-05-15 06:04:17 GMT 53.127594 -2.774048 4,875 89 204 64
2022-05-15 06:04:16 GMT 53.127594 -2.775774 4,875 93 205 64
2022-05-15 06:04:15 GMT 53.127647 -2.777441 4,875 93 205 64
2022-05-15 06:04:13 GMT 53.127823 -2.780483 4,875 98 205 0
2022-05-15 06:04:12 GMT 53.127960 -2.781817 4,875 100 205 0
2022-05-15 06:04:11 GMT 53.128391 -2.784792 4,875 105 205 0
2022-05-15 06:04:09 GMT 53.128628 -2.786165 4,875 107 204 -64
2022-05-15 06:04:07 GMT 53.129059 -2.788487 4,875 109 205 -64
2022-05-15 06:04:06 GMT 53.129463 -2.790123 4,875 114 204 0
2022-05-15 06:04:05 GMT 53.130302 -2.792951 4,875 117 204 64
2022-05-15 06:04:03 GMT 53.130753 -2.794373 4,875 121 203 0
2022-05-15 06:04:02 GMT 53.131760 -2.797041 4,875 123 202 0
2022-05-15 06:04:00 GMT 53.132309 -2.798296 4,875 128 201 -64
2022-05-15 06:03:59 GMT 53.132812 -2.799395 4,875 130 201 -64
2022-05-15 06:03:58 GMT 53.134140 -2.801985 4,875 132 200 0
2022-05-15 06:03:56 GMT 53.134781 -2.803162 4,875 133 200 0
2022-05-15 06:03:55 GMT 53.135422 -2.804341 4,875 133 200 0
2022-05-15 06:03:53 GMT 53.136749 -2.806536 4,875 133 200 0
2022-05-15 06:03:52 GMT 53.137344 -2.807556 4,875 134 200 0
2022-05-15 06:03:51 GMT 53.137890 -2.808542 4,875 134 200 0
2022-05-15 06:03:50 GMT 53.139240 -2.810804 4,875 134 200 0
2022-05-15 06:03:47 GMT 53.140495 -2.812904 4,875 134 200 0
2022-05-15 06:03:46 GMT 53.141846 -2.815166 4,875 135 200 0
2022-05-15 06:03:44 GMT 53.142609 -2.816424 4,875 136 200 0
2022-05-15 06:03:43 GMT 53.143242 -2.817428 4,875 136 200 0
2022-05-15 06:03:42 GMT 53.144592 -2.819528 4,875 137 200 0
2022-05-15 06:03:40 GMT 53.145218 -2.820504 4,875 138 200 0
2022-05-15 06:03:38 GMT 53.147572 -2.823890 4,875 140 200 0
2022-05-15 06:03:36 GMT 53.148270 -2.824860 4,875 142 200 0
2022-05-15 06:03:34 GMT 53.149796 -2.826782 4,875 143 200 64
2022-05-15 06:03:32 GMT 53.151066 -2.828252 4,875 150 200 0
2022-05-15 06:03:31 GMT 53.153812 -2.830757 4,875 152 200 0
2022-05-15 06:03:29 GMT 53.153812 -2.830757 4,875 154 199 0
2022-05-15 06:03:28 GMT 53.154602 -2.831334 4,875 159 199 64
2022-05-15 06:03:26 GMT 53.156250 -2.832354 4,875 164 199 64
2022-05-15 06:03:24 GMT 53.157440 -2.832938 4,875 166 199 0
2022-05-15 06:03:23 GMT 53.158264 -2.833296 4,875 169 199 0
2022-05-15 06:03:22 GMT 53.159210 -2.833665 4,875 171 199 0
2022-05-15 06:03:20 GMT 53.161102 -2.834159 4,875 174 199 -64
2022-05-15 06:03:19 GMT 53.161957 -2.834311 4,875 175 200 -64
2022-05-15 06:03:18 GMT 53.162933 -2.834394 4,875 177 200 -64
2022-05-15 06:03:15 GMT 53.165314 -2.834630 4,875 177 200 0
2022-05-15 06:03:14 GMT 53.167740 -2.834787 4,875 177 200 0
2022-05-15 06:03:12 GMT 53.168747 -2.834865 4,875 177 200 0
2022-05-15 06:03:11 GMT 53.169266 -2.834877 4,875 177 200 0
2022-05-15 06:03:09 GMT 53.171223 -2.834957 4,875 177 200 0
2022-05-15 06:03:08 GMT 53.172245 -2.835038 4,875 177 200 0
2022-05-15 06:03:07 GMT 53.174149 -2.835179 4,875 177 200 0
2022-05-15 06:03:05 GMT 53.174973 -2.835179 4,875 178 201 0
2022-05-15 06:03:03 GMT 53.176949 -2.835361 4,875 178 201 0
2022-05-15 06:03:02 GMT 53.177948 -2.835414 4,875 178 201 0
2022-05-15 06:03:01 GMT 53.178955 -2.835414 4,875 178 201 0
2022-05-15 06:02:59 GMT 53.180420 -2.835571 4,875 178 201 0
2022-05-15 06:02:58 GMT 53.181381 -2.835571 4,875 178 202 0
2022-05-15 06:02:57 GMT 53.182720 -2.835684 4,875 178 202 0
2022-05-15 06:02:54 GMT 53.185513 -2.835846 4,875 178 202 0
2022-05-15 06:02:53 GMT 53.186352 -2.835927 4,875 178 203 0
2022-05-15 06:02:52 GMT 53.188385 -2.836042 4,875 178 203 0
2022-05-15 06:02:50 GMT 53.189301 -2.836042 4,875 177 203 0
2022-05-15 06:02:49 GMT 53.189842 -2.836088 4,875 177 203 0
2022-05-15 06:02:47 GMT 53.192169 -2.836250 4,875 178 203 0
2022-05-15 06:02:46 GMT 53.192963 -2.836278 4,875 178 203 0
2022-05-15 06:02:45 GMT 53.193832 -2.836356 4,875 177 204 0
2022-05-15 06:02:44 GMT 53.195801 -2.836435 4,875 178 204 0
2022-05-15 06:02:41 GMT 53.198730 -2.836670 4,875 178 204 -64
2022-05-15 06:02:39 GMT 53.199646 -2.836670 4,875 178 204 -64
2022-05-15 06:02:38 GMT 53.200607 -2.836748 4,875 178 205 -64
2022-05-15 06:02:37 GMT 53.202393 -2.836827 4,875 178 205 -64
2022-05-15 06:02:35 GMT 53.203484 -2.836896 4,875 178 205 -64
2022-05-15 06:02:34 GMT 53.204407 -2.836905 4,875 178 205 -64
2022-05-15 06:02:33 GMT 53.206226 -2.836977 4,875 178 205 0
2022-05-15 06:02:31 GMT 53.207066 -2.836977 4,875 179 206 0
2022-05-15 06:02:30 GMT 53.208069 -2.836984 4,875 179 206 64
2022-05-15 06:02:29 GMT 53.208977 -2.837058 4,875 179 206 64
2022-05-15 06:02:27 GMT 53.210793 -2.837058 4,875 181 207 64
2022-05-15 06:02:25 GMT 53.213837 -2.836905 4,875 182 210 64
2022-05-15 06:02:23 GMT 53.214840 -2.836815 4,875 183 210 0
2022-05-15 06:02:22 GMT 53.215851 -2.836748 4,850 184 211 0
2022-05-15 06:02:20 GMT 53.218002 -2.836435 4,850 186 214 0
2022-05-15 06:02:19 GMT 53.218845 -2.836250 4,850 188 215 0
2022-05-15 06:02:18 GMT 53.220978 -2.835728 4,850 192 217 0
2022-05-15 06:02:16 GMT 53.222660 -2.835038 4,875 196 218 0
2022-05-15 06:02:14 GMT 53.223724 -2.834551 4,875 198 220 0
2022-05-15 06:02:13 GMT 53.224777 -2.834002 4,875 200 220 64
2022-05-15 06:02:12 GMT 53.226620 -2.832776 4,875 206 221 64
2022-05-15 06:02:10 GMT 53.227642 -2.832049 4,875 206 221 64
2022-05-15 06:02:09 GMT 53.228485 -2.831334 4,850 211 222 64
2022-05-15 06:02:08 GMT 53.229412 -2.830434 4,850 213 222 64
2022-05-15 06:02:06 GMT 53.231274 -2.828495 4,850 218 224 0
2022-05-15 06:02:05 GMT 53.232056 -2.827567 4,850 220 224 -64
2022-05-15 06:02:03 GMT 53.232788 -2.826625 4,850 222 225 -64
2022-05-15 06:02:01 GMT 53.234665 -2.823879 4,875 226 224 -128
2022-05-15 06:02:00 GMT 53.235352 -2.822859 4,875 227 225 -128
2022-05-15 06:01:58 GMT 53.237228 -2.819406 4,875 231 226 0
2022-05-15 06:01:57 GMT 53.237869 -2.818229 4,875 231 226 0
2022-05-15 06:01:56 GMT 53.239281 -2.815327 4,875 231 225 64
2022-05-15 06:01:54 GMT 53.239887 -2.814116 4,875 231 225 0
2022-05-15 06:01:53 GMT 53.241283 -2.811288 4,875 231 225 0
2022-05-15 06:01:51 GMT 53.241886 -2.810077 4,875 231 225 0
2022-05-15 06:01:50 GMT 53.242584 -2.808622 4,875 231 225 0
2022-05-15 06:01:48 GMT 53.243656 -2.806441 4,875 231 225 0
2022-05-15 06:01:46 GMT 53.245705 -2.802241 4,875 231 225 -64
2022-05-15 06:01:43 GMT 53.246658 -2.800337 4,875 231 225 0
2022-05-15 06:01:42 GMT 53.247620 -2.798453 4,875 231 225 0
2022-05-15 06:01:41 GMT 53.248260 -2.797119 4,875 231 225 0
2022-05-15 06:01:40 GMT 53.249569 -2.794486 4,875 231 225 0
2022-05-15 06:01:38 GMT 53.250221 -2.793193 4,875 231 225 0
2022-05-15 06:01:36 GMT 53.253067 -2.787467 4,875 231 225 0
2022-05-15 06:01:34 GMT 53.253067 -2.787467 4,875 231 226 0
2022-05-15 06:01:33 GMT 53.253712 -2.786165 4,875 231 226 0
2022-05-15 06:01:31 GMT 53.255249 -2.783095 4,875 231 226 0
2022-05-15 06:01:29 GMT 53.256226 -2.781076 4,875 231 226 0
2022-05-15 06:01:28 GMT 53.256866 -2.779776 4,875 231 226 0
2022-05-15 06:01:27 GMT 53.258183 -2.777198 4,875 231 227 0
2022-05-15 06:01:25 GMT 53.258926 -2.775744 4,875 231 227 0
2022-05-15 06:01:23 GMT 53.260323 -2.772917 4,875 231 227 0
2022-05-15 06:01:22 GMT 53.260941 -2.771615 4,875 231 227 0
2022-05-15 06:01:21 GMT 53.262268 -2.768947 4,875 231 227 0
2022-05-15 06:01:19 GMT 53.262928 -2.767666 4,875 231 227 0
2022-05-15 06:01:18 GMT 53.263504 -2.766514 4,875 231 227 64
2022-05-15 06:01:17 GMT 53.264187 -2.765081 4,875 231 227 64
2022-05-15 06:01:15 GMT 53.265747 -2.761884 4,875 231 227 0
2022-05-15 06:01:14 GMT 53.266468 -2.760477 4,875 231 227 0
2022-05-15 06:01:13 GMT 53.266846 -2.759687 4,875 231 228 0
2022-05-15 06:01:12 GMT 53.268188 -2.756922 4,875 231 228 0
2022-05-15 06:01:10 GMT 53.269119 -2.755064 4,875 231 228 0
2022-05-15 06:01:09 GMT 53.269501 -2.754272 4,875 231 228 0
2022-05-15 06:01:07 GMT 53.270920 -2.751447 4,875 231 227 0
2022-05-15 06:01:06 GMT 53.271587 -2.750056 4,875 231 227 0
2022-05-15 06:01:05 GMT 53.272285 -2.748682 4,875 231 226 0
2022-05-15 06:01:03 GMT 53.273727 -2.745693 4,875 231 226 0
2022-05-15 06:01:02 GMT 53.274380 -2.744401 4,875 231 226 0
2022-05-15 06:01:01 GMT 53.275543 -2.742058 4,875 231 226 -64
2022-05-15 06:00:59 GMT 53.276505 -2.740147 4,875 231 227 -64
2022-05-15 06:00:58 GMT 53.276848 -2.739392 4,875 231 227 -64
2022-05-15 06:00:57 GMT 53.278522 -2.736000 4,875 231 227 0
2022-05-15 06:00:55 GMT 53.278885 -2.735203 4,875 231 227 0
2022-05-15 06:00:54 GMT 53.279617 -2.733712 4,875 231 227 0
2022-05-15 06:00:52 GMT 53.281082 -2.730809 4,875 231 227 0
2022-05-15 06:00:51 GMT 53.281769 -2.729396 4,875 231 227 0
2022-05-15 06:00:49 GMT 53.283096 -2.726728 4,875 231 227 0
2022-05-15 06:00:48 GMT 53.283737 -2.725316 4,875 231 227 0
2022-05-15 06:00:47 GMT 53.284389 -2.724044 4,875 231 227 0
2022-05-15 06:00:45 GMT 53.285694 -2.721378 4,875 231 227 0
2022-05-15 06:00:44 GMT 53.286297 -2.720166 4,875 231 227 0
2022-05-15 06:00:43 GMT 53.286987 -2.718724 4,875 231 227 0
2022-05-15 06:00:42 GMT 53.288391 -2.715804 4,875 231 227 64
2022-05-15 06:00:40 GMT 53.288998 -2.714592 4,875 231 227 64
2022-05-15 06:00:39 GMT 53.289696 -2.713219 4,875 231 227 0
2022-05-15 06:00:37 GMT 53.290970 -2.710563 4,875 231 227 0
2022-05-15 06:00:36 GMT 53.291607 -2.709261 4,875 231 228 0
2022-05-15 06:00:35 GMT 53.293003 -2.706433 4,875 231 228 0
2022-05-15 06:00:33 GMT 53.293655 -2.705060 4,875 231 228 0
2022-05-15 06:00:32 GMT 53.294353 -2.703687 4,875 231 228 0
2022-05-15 06:00:31 GMT 53.295654 -2.700940 4,875 231 228 0
2022-05-15 06:00:29 GMT 53.296371 -2.699498 4,875 231 228 0
2022-05-15 06:00:28 GMT 53.297657 -2.696901 4,875 231 228 0
2022-05-15 06:00:26 GMT 53.298386 -2.695417 4,875 231 228 0
2022-05-15 06:00:25 GMT 53.299007 -2.694155 4,875 231 228 0
2022-05-15 06:00:24 GMT 53.300308 -2.691493 4,875 231 228 0
2022-05-15 06:00:22 GMT 53.300995 -2.690159 4,875 231 228 0
2022-05-15 06:00:21 GMT 53.301613 -2.688823 4,875 231 228 0
2022-05-15 06:00:20 GMT 53.302322 -2.687413 4,875 231 228 0
2022-05-15 06:00:18 GMT 53.303894 -2.684218 4,875 231 228 0
2022-05-15 06:00:17 GMT 53.304314 -2.683411 4,875 231 228 0
2022-05-15 06:00:16 GMT 53.305023 -2.681998 4,875 231 228 0
2022-05-15 06:00:14 GMT 53.306396 -2.679173 4,875 231 227 0
2022-05-15 06:00:13 GMT 53.307060 -2.677917 4,875 231 227 0
2022-05-15 06:00:11 GMT 53.308502 -2.675014 4,875 231 227 0
2022-05-15 06:00:10 GMT 53.309063 -2.673798 4,875 231 227 0
2022-05-15 06:00:09 GMT 53.309967 -2.672032 4,875 231 227 0
2022-05-15 06:00:07 GMT 53.311066 -2.669756 4,875 231 227 0
2022-05-15 06:00:06 GMT 53.311714 -2.668466 4,875 231 226 0
2022-05-15 06:00:04 GMT 53.313160 -2.665558 4,875 231 226 0
2022-05-15 06:00:03 GMT 53.314636 -2.662537 4,875 231 227 0
2022-05-15 06:00:01 GMT 53.315231 -2.661360 4,875 231 226 0
2022-05-15 06:00:00 GMT 53.315826 -2.660182 4,875 231 226 0
2022-05-15 05:59:59 GMT 53.317245 -2.657357 4,875 231 226 0
2022-05-15 05:59:57 GMT 53.317905 -2.655945 4,875 231 225 0
2022-05-15 05:59:56 GMT 53.318512 -2.654652 4,875 231 225 0
2022-05-15 05:59:55 GMT 53.319862 -2.651987 4,875 231 225 0
2022-05-15 05:59:53 GMT 53.320404 -2.650844 4,875 231 225 0
2022-05-15 05:59:52 GMT 53.321365 -2.648961 4,875 231 225 0
2022-05-15 05:59:50 GMT 53.323059 -2.645508 4,875 231 225 0
2022-05-15 05:59:48 GMT 53.323792 -2.644017 4,875 231 225 0
2022-05-15 05:59:47 GMT 53.325119 -2.641349 4,875 231 225 0
2022-05-15 05:59:45 GMT 53.325806 -2.640015 4,875 231 225 0
2022-05-15 05:59:44 GMT 53.326565 -2.638496 4,875 231 225 0
2022-05-15 05:59:42 GMT 53.328506 -2.634521 4,875 231 225 0
2022-05-15 05:59:40 GMT 53.329220 -2.633164 4,875 231 225 0
2022-05-15 05:59:39 GMT 53.329964 -2.631710 4,875 231 225 64
2022-05-15 05:59:37 GMT 53.331268 -2.628964 4,875 231 225 64
2022-05-15 05:59:36 GMT 53.331966 -2.627671 4,875 231 225 64
2022-05-15 05:59:35 GMT 53.332489 -2.626517 4,875 231 225 64
2022-05-15 05:59:33 GMT 53.333874 -2.623794 4,850 231 225 64
2022-05-15 05:59:32 GMT 53.334503 -2.622515 4,850 231 225 64
2022-05-15 05:59:31 GMT 53.336483 -2.618543 4,850 231 225 0
2022-05-15 05:59:29 GMT 53.336483 -2.618543 4,850 231 225 0
2022-05-15 05:59:28 GMT 53.337250 -2.617022 4,850 231 225 0
2022-05-15 05:59:27 GMT 53.337891 -2.615688 4,850 231 225 0
2022-05-15 05:59:24 GMT 53.339275 -2.612969 4,850 231 225 0
2022-05-15 05:59:23 GMT 53.339905 -2.611686 4,850 231 225 0
2022-05-15 05:59:22 GMT 53.341461 -2.608625 4,850 230 226 0
2022-05-15 05:59:20 GMT 53.342194 -2.607134 4,850 231 225 0
2022-05-15 05:59:19 GMT 53.343418 -2.604648 4,875 230 226 0
2022-05-15 05:59:17 GMT 53.344162 -2.603194 4,875 230 226 0
2022-05-15 05:59:16 GMT 53.344910 -2.601740 4,875 230 226 0
2022-05-15 05:59:15 GMT 53.345306 -2.601013 4,875 230 224 0
2022-05-15 05:59:13 GMT 53.346954 -2.597782 4,875 230 224 0
2022-05-15 05:59:12 GMT 53.347549 -2.596462 4,875 230 224 0
2022-05-15 05:59:11 GMT 53.348213 -2.595197 4,875 230 224 0
2022-05-15 05:59:09 GMT 53.349468 -2.592693 4,875 230 224 -64
2022-05-15 05:59:08 GMT 53.350075 -2.591562 4,875 230 224 -64
2022-05-15 05:59:07 GMT 53.350727 -2.590188 4,875 230 222 -64
2022-05-15 05:59:05 GMT 53.352036 -2.587673 4,875 230 220 -64
2022-05-15 05:59:03 GMT 53.353775 -2.584220 4,875 230 220 -64
2022-05-15 05:59:01 GMT 53.355103 -2.581630 4,875 230 220 0
2022-05-15 05:59:00 GMT 53.355801 -2.580252 4,875 230 219 0
2022-05-15 05:58:59 GMT 53.356476 -2.578962 4,875 230 219 0
2022-05-15 05:58:58 GMT 53.357197 -2.577586 4,875 230 219 0
2022-05-15 05:58:57 GMT 53.359291 -2.573467 4,900 230 219 -128
2022-05-15 05:58:55 GMT 53.359291 -2.573467 4,900 230 219 -128
2022-05-15 05:58:54 GMT 53.359943 -2.572174 4,900 230 219 -192
2022-05-15 05:58:52 GMT 53.361385 -2.569347 4,900 230 219 -320
2022-05-15 05:58:50 GMT 53.362015 -2.568054 4,900 230 219 -384
2022-05-15 05:58:49 GMT 53.363297 -2.565543 4,900 230 219 -512
2022-05-15 05:58:47 GMT 53.363995 -2.564177 4,925 230 219 -576
2022-05-15 05:58:46 GMT 53.365402 -2.561384 4,950 230 221 -768
2022-05-15 05:58:44 GMT 53.366135 -2.559893 4,950 230 221 -832
2022-05-15 05:58:42 GMT 53.368229 -2.555775 5,000 230 221 -960
2022-05-15 05:58:40 GMT 53.368790 -2.554714 5,025 230 222 -1024
2022-05-15 05:58:39 GMT 53.369522 -2.553223 5,050 230 222 -1024
2022-05-15 05:58:37 GMT 53.370792 -2.550686 5,100 230 222 -1088
2022-05-15 05:58:36 GMT 53.371395 -2.549555 5,100 230 222 -1088
2022-05-15 05:58:35 GMT 53.373505 -2.545375 5,125 230 222 -1152
2022-05-15 05:58:33 GMT 53.373505 -2.545375 5,150 230 222 -1152
2022-05-15 05:58:32 GMT 53.374142 -2.544143 5,175 230 222 -1216
2022-05-15 05:58:31 GMT 53.374786 -2.542864 5,200 230 222 -1216
2022-05-15 05:58:29 GMT 53.376053 -2.540346 5,225 230 222 -1216
2022-05-15 05:58:28 GMT 53.377441 -2.537606 5,275 230 222 -1216
2022-05-15 05:58:26 GMT 53.378052 -2.536388 5,300 230 223 -1216
2022-05-15 05:58:24 GMT 53.379124 -2.534287 5,325 230 223 -1152
2022-05-15 05:58:23 GMT 53.380142 -2.532192 5,350 230 223 -1152
2022-05-15 05:58:22 GMT 53.380753 -2.530975 5,375 231 223 -1152
2022-05-15 05:58:20 GMT 53.382706 -2.527012 5,425 231 223 -1152
2022-05-15 05:58:18 GMT 53.383438 -2.525521 5,450 231 223 -1152
2022-05-15 05:58:17 GMT 53.384079 -2.524187 5,450 232 224 -1216
2022-05-15 05:58:16 GMT 53.385315 -2.521524 5,500 233 224 -1216
2022-05-15 05:58:14 GMT 53.385864 -2.520342 5,525 233 224 -1280
2022-05-15 05:58:13 GMT 53.386551 -2.518851 5,550 234 224 -1280
2022-05-15 05:58:11 GMT 53.387695 -2.516183 5,600 236 226 -1344
2022-05-15 05:58:10 GMT 53.388565 -2.513986 5,600 238 225 -1344
2022-05-15 05:58:09 GMT 53.389133 -2.512476 5,650 239 226 -1408
2022-05-15 05:58:08 GMT 53.389412 -2.511668 5,650 242 227 -1408
2022-05-15 05:58:06 GMT 53.390434 -2.508437 5,725 248 228 -1472
2022-05-15 05:58:05 GMT 53.390900 -2.506766 5,725 248 228 -1472
2022-05-15 05:58:02 GMT 53.392044 -2.501822 5,800 254 229 -1408
2022-05-15 05:58:01 GMT 53.392300 -2.500359 5,825 256 229 -1344
2022-05-15 05:57:59 GMT 53.392811 -2.496562 5,875 260 230 -1216
2022-05-15 05:57:58 GMT 53.392998 -2.495027 5,875 262 230 -1152
2022-05-15 05:57:57 GMT 53.393326 -2.491228 5,900 266 231 -960
2022-05-15 05:57:55 GMT 53.393414 -2.489534 5,925 268 231 -832
2022-05-15 05:57:54 GMT 53.393463 -2.487757 5,950 269 232 -704
2022-05-15 05:57:53 GMT 53.393555 -2.484087 5,975 271 233 -512
2022-05-15 05:57:51 GMT 53.393555 -2.482183 5,975 271 233 -384
2022-05-15 05:57:50 GMT 53.393509 -2.480406 5,975 271 233 -320
2022-05-15 05:57:49 GMT 53.393509 -2.476771 6,000 271 234 -128
2022-05-15 05:57:47 GMT 53.393463 -2.475063 6,000 271 234 -128
2022-05-15 05:57:46 GMT 53.393463 -2.471520 6,000 271 234 0
2022-05-15 05:57:44 GMT 53.393417 -2.469099 6,000 271 234 0
2022-05-15 05:57:43 GMT 53.393417 -2.467294 6,000 271 234 0
2022-05-15 05:57:41 GMT 53.393414 -2.464330 6,000 271 234 0
2022-05-15 05:57:39 GMT 53.393368 -2.458676 6,000 271 235 0
2022-05-15 05:57:37 GMT 53.393322 -2.457060 6,000 271 235 0
2022-05-15 05:57:36 GMT 53.393322 -2.455040 6,000 271 235 0
2022-05-15 05:57:35 GMT 53.393322 -2.453263 6,000 271 235 -64
2022-05-15 05:57:33 GMT 53.393280 -2.449716 6,000 271 236 0
2022-05-15 05:57:32 GMT 53.393230 -2.447608 6,000 271 236 0
2022-05-15 05:57:31 GMT 53.393234 -2.443830 6,000 271 236 0
2022-05-15 05:57:29 GMT 53.393188 -2.442025 6,000 271 236 0
2022-05-15 05:57:28 GMT 53.393181 -2.440096 6,000 271 236 0
2022-05-15 05:57:27 GMT 53.393135 -2.438480 6,000 272 236 0
2022-05-15 05:57:25 GMT 53.393135 -2.435007 6,000 272 236 0
2022-05-15 05:57:24 GMT 53.393097 -2.433079 6,000 272 236 0
2022-05-15 05:57:23 GMT 53.393051 -2.430490 6,000 272 236 0
2022-05-15 05:57:21 GMT 53.393044 -2.427736 6,000 272 236 0
2022-05-15 05:57:20 GMT 53.393005 -2.425781 6,000 272 236 0
2022-05-15 05:57:19 GMT 53.392998 -2.423697 6,000 272 236 0
2022-05-15 05:57:18 GMT 53.392914 -2.420131 6,000 272 236 0
2022-05-15 05:57:16 GMT 53.392914 -2.418326 6,000 272 236 0
2022-05-15 05:57:15 GMT 53.392902 -2.416588 6,000 272 236 0
2022-05-15 05:57:13 GMT 53.392822 -2.412284 6,000 272 236 0
2022-05-15 05:57:12 GMT 53.392811 -2.410610 6,000 272 236 0
2022-05-15 05:57:11 GMT 53.392776 -2.408674 6,000 272 235 0
2022-05-15 05:57:10 GMT 53.392761 -2.406975 6,000 272 235 0
2022-05-15 05:57:08 GMT 53.392715 -2.402936 6,000 272 235 0
2022-05-15 05:57:07 GMT 53.392685 -2.401925 6,000 272 235 0
2022-05-15 05:57:06 GMT 53.392670 -2.399463 6,000 272 235 0
2022-05-15 05:57:03 GMT 53.392624 -2.395827 6,000 272 235 0
2022-05-15 05:57:02 GMT 53.392578 -2.394050 6,000 272 235 0
2022-05-15 05:57:01 GMT 53.392548 -2.390703 6,000 272 235 0
2022-05-15 05:56:59 GMT 53.392532 -2.389122 6,000 272 235 0
2022-05-15 05:56:58 GMT 53.392532 -2.387345 6,000 272 235 0
2022-05-15 05:56:56 GMT 53.392483 -2.383468 6,000 272 235 0
2022-05-15 05:56:55 GMT 53.392456 -2.381601 6,000 272 236 0
2022-05-15 05:56:54 GMT 53.392410 -2.379717 6,000 272 236 0
2022-05-15 05:56:52 GMT 53.392345 -2.376197 6,000 272 236 0
2022-05-15 05:56:50 GMT 53.392250 -2.370381 6,000 272 237 -64
2022-05-15 05:56:48 GMT 53.392250 -2.368523 6,000 272 236 -64
2022-05-15 05:56:47 GMT 53.392181 -2.364572 6,000 272 237 -64
2022-05-15 05:56:45 GMT 53.392159 -2.362707 6,000 272 237 -64
2022-05-15 05:56:44 GMT 53.392113 -2.360687 6,000 272 237 -64
2022-05-15 05:56:42 GMT 53.392017 -2.356971 6,000 272 238 -64
2022-05-15 05:56:41 GMT 53.392017 -2.354952 6,000 272 238 -64
2022-05-15 05:56:40 GMT 53.391972 -2.353336 6,000 272 238 -64
2022-05-15 05:56:38 GMT 53.391907 -2.350289 6,000 273 238 -64
2022-05-15 05:56:37 GMT 53.391861 -2.348249 6,000 273 238 0
2022-05-15 05:56:36 GMT 53.391785 -2.346308 6,000 273 238 64
2022-05-15 05:56:35 GMT 53.391678 -2.342364 6,000 274 238 128
2022-05-15 05:56:33 GMT 53.391598 -2.340653 6,000 275 238 128
2022-05-15 05:56:32 GMT 53.391495 -2.338675 6,000 275 238 128
2022-05-15 05:56:31 GMT 53.391403 -2.336870 6,000 276 240 128
2022-05-15 05:56:28 GMT 53.391041 -2.331444 6,000 280 242 128
2022-05-15 05:56:27 GMT 53.390667 -2.327971 6,000 283 246 64
2022-05-15 05:56:25 GMT 53.390396 -2.325963 6,000 285 244 64
2022-05-15 05:56:24 GMT 53.390121 -2.324001 6,000 287 245 0
2022-05-15 05:56:22 GMT 53.389458 -2.320458 6,000 291 246 -64
2022-05-15 05:56:21 GMT 53.389069 -2.318743 6,000 293 247 -64
2022-05-15 05:56:19 GMT 53.388248 -2.315288 6,000 296 247 -64
2022-05-15 05:56:18 GMT 53.387783 -2.313591 6,000 298 247 -128
2022-05-15 05:56:17 GMT 53.387238 -2.311759 6,000 299 247 -64
2022-05-15 05:56:14 GMT 53.385544 -2.306580 6,000 300 248 0
2022-05-15 05:56:13 GMT 53.383850 -2.301793 6,000 300 248 0
2022-05-15 05:56:11 GMT 53.383850 -2.301793 6,000 300 248 0
2022-05-15 05:56:10 GMT 53.382660 -2.298261 6,000 300 248 -64
2022-05-15 05:56:08 GMT 53.382156 -2.296770 6,000 300 248 -64
2022-05-15 05:56:07 GMT 53.381592 -2.295173 6,000 300 248 -64
2022-05-15 05:56:06 GMT 53.379639 -2.289472 6,000 300 248 -64
2022-05-15 05:56:04 GMT 53.379639 -2.289472 6,000 300 248 -64
2022-05-15 05:56:03 GMT 53.379089 -2.287746 6,000 300 248 -64
2022-05-15 05:56:02 GMT 53.378006 -2.284510 6,000 299 248 -64
2022-05-15 05:56:00 GMT 53.377399 -2.282652 6,000 299 248 0
2022-05-15 05:55:59 GMT 53.376053 -2.278209 6,000 298 248 0
2022-05-15 05:55:57 GMT 53.376053 -2.278209 6,000 296 247 0
2022-05-15 05:55:56 GMT 53.375565 -2.276524 6,000 296 247 64
2022-05-15 05:55:55 GMT 53.374516 -2.272877 6,000 294 247 64
2022-05-15 05:55:53 GMT 53.374146 -2.271345 6,000 292 247 64
2022-05-15 05:55:52 GMT 53.373550 -2.268912 6,000 290 246 0
2022-05-15 05:55:50 GMT 53.372932 -2.265930 6,000 287 245 0
2022-05-15 05:55:48 GMT 53.372326 -2.262053 6,000 281 243 64
2022-05-15 05:55:47 GMT 53.371861 -2.258417 6,000 277 242 64
2022-05-15 05:55:45 GMT 53.371723 -2.256559 6,000 275 241 64
2022-05-15 05:55:44 GMT 53.371582 -2.254459 6,000 273 241 64
2022-05-15 05:55:42 GMT 53.371490 -2.250863 6,000 268 240 64
2022-05-15 05:55:41 GMT 53.371582 -2.245292 6,000 266 239 0
2022-05-15 05:55:39 GMT 53.371582 -2.245292 6,000 264 238 0
2022-05-15 05:55:38 GMT 53.371674 -2.243644 6,000 262 238 0
2022-05-15 05:55:37 GMT 53.372372 -2.237657 6,000 256 236 0
2022-05-15 05:55:35 GMT 53.372372 -2.237657 6,000 256 236 0
2022-05-15 05:55:34 GMT 53.372818 -2.234776 6,000 252 234 64
2022-05-15 05:55:32 GMT 53.373352 -2.232325 6,000 250 233 64
2022-05-15 05:55:30 GMT 53.373779 -2.230303 6,000 248 234 0
2022-05-15 05:55:29 GMT 53.374420 -2.227963 6,000 244 233 0
2022-05-15 05:55:28 GMT 53.374886 -2.226347 6,000 242 231 0
2022-05-15 05:55:27 GMT 53.375473 -2.224574 6,000 240 231 -64
2022-05-15 05:55:25 GMT 53.376518 -2.221743 6,000 236 229 -128
2022-05-15 05:55:24 GMT 53.377167 -2.220127 6,000 235 228 -64
2022-05-15 05:55:23 GMT 53.377808 -2.218610 6,000 233 228 -64
2022-05-15 05:55:21 GMT 53.379135 -2.215628 6,000 232 227 0
2022-05-15 05:55:20 GMT 53.379776 -2.214294 6,000 232 227 0
2022-05-15 05:55:18 GMT 53.381058 -2.211626 6,000 232 227 0
2022-05-15 05:55:17 GMT 53.381683 -2.210352 6,000 232 228 64
2022-05-15 05:55:16 GMT 53.382339 -2.208880 6,000 232 227 64
2022-05-15 05:55:15 GMT 53.384262 -2.204878 6,000 232 227 64
2022-05-15 05:55:13 GMT 53.384262 -2.204878 6,000 232 227 0
2022-05-15 05:55:12 GMT 53.385315 -2.202680 6,000 232 227 0
2022-05-15 05:55:10 GMT 53.386688 -2.199777 6,000 232 227 0
2022-05-15 05:55:09 GMT 53.387035 -2.199043 6,000 232 228 0
2022-05-15 05:55:08 GMT 53.388016 -2.197030 6,000 232 228 0
2022-05-15 05:55:07 GMT 53.388618 -2.195731 6,000 232 228 0
2022-05-15 05:55:05 GMT 53.389832 -2.193307 6,000 232 228 0
2022-05-15 05:55:03 GMT 53.391769 -2.189261 6,000 232 227 0
2022-05-15 05:55:00 GMT 53.392822 -2.187064 6,000 232 227 0
2022-05-15 05:54:58 GMT 53.394241 -2.184161 6,000 231 228 0
2022-05-15 05:54:57 GMT 53.394859 -2.182886 6,000 231 228 0
2022-05-15 05:54:55 GMT 53.396210 -2.180140 6,000 231 227 0
2022-05-15 05:54:53 GMT 53.397766 -2.176941 6,000 231 227 0
2022-05-15 05:54:51 GMT 53.398636 -2.175136 6,000 231 227 0
2022-05-15 05:54:49 GMT 53.400352 -2.171739 6,000 230 225 -64
2022-05-15 05:54:46 GMT 53.402351 -2.167699 6,000 230 225 -64
2022-05-15 05:54:44 GMT 53.404129 -2.164150 6,000 230 225 -64
2022-05-15 05:54:42 GMT 53.404816 -2.162894 6,000 230 224 0
2022-05-15 05:54:41 GMT 53.405548 -2.161403 6,000 230 224 0
2022-05-15 05:54:39 GMT 53.406921 -2.158735 6,000 230 224 0
2022-05-15 05:54:38 GMT 53.407700 -2.157166 6,000 230 224 0
2022-05-15 05:54:37 GMT 53.409119 -2.154419 6,000 230 224 0
2022-05-15 05:54:35 GMT 53.409851 -2.152928 6,000 230 223 0
2022-05-15 05:54:34 GMT 53.410500 -2.151705 6,000 231 224 64
2022-05-15 05:54:33 GMT 53.411804 -2.149039 6,000 232 224 64
2022-05-15 05:54:31 GMT 53.412506 -2.147592 6,000 233 225 64
2022-05-15 05:54:30 GMT 53.413193 -2.146101 6,000 233 225 64
2022-05-15 05:54:27 GMT 53.414501 -2.143061 6,000 236 226 0
2022-05-15 05:54:26 GMT 53.415665 -2.140058 6,000 240 227 0
2022-05-15 05:54:24 GMT 53.416260 -2.138332 6,000 241 227 0
2022-05-15 05:54:23 GMT 53.416691 -2.137002 6,000 243 228 0
2022-05-15 05:54:22 GMT 53.417622 -2.133690 6,000 249 230 0
2022-05-15 05:54:20 GMT 53.417999 -2.132132 6,000 249 230 0
2022-05-15 05:54:19 GMT 53.418320 -2.130641 6,000 251 231 0
2022-05-15 05:54:18 GMT 53.419006 -2.127032 6,000 255 232 0
2022-05-15 05:54:16 GMT 53.419296 -2.125208 6,000 256 234 0
2022-05-15 05:54:15 GMT 53.419510 -2.123500 6,000 258 234 -64
2022-05-15 05:54:14 GMT 53.419716 -2.121815 6,000 260 235 -64
2022-05-15 05:54:12 GMT 53.420135 -2.116565 6,000 266 237 -64
2022-05-15 05:54:09 GMT 53.420197 -2.111729 6,000 272 239 -64
2022-05-15 05:54:08 GMT 53.420151 -2.109846 6,000 274 239 0
2022-05-15 05:54:06 GMT 53.419994 -2.106063 6,000 277 240 64
2022-05-15 05:54:05 GMT 53.419830 -2.104353 6,000 279 240 0
2022-05-15 05:54:03 GMT 53.419483 -2.100731 6,000 283 242 0
2022-05-15 05:54:02 GMT 53.419189 -2.098860 6,000 285 242 0
2022-05-15 05:54:01 GMT 53.418880 -2.096935 6,000 289 242 0
2022-05-15 05:54:00 GMT 53.418228 -2.093680 6,000 291 244 0
2022-05-15 05:53:58 GMT 53.417809 -2.091845 6,000 293 243 0
2022-05-15 05:53:57 GMT 53.417389 -2.090068 6,000 295 244 0
2022-05-15 05:53:55 GMT 53.416367 -2.086675 6,000 299 245 0
2022-05-15 05:53:53 GMT 53.415295 -2.083606 6,000 302 246 0
2022-05-15 05:53:52 GMT 53.414658 -2.081909 6,000 309 248 0
2022-05-15 05:53:51 GMT 53.413944 -2.080294 6,000 309 248 0
2022-05-15 05:53:50 GMT 53.413239 -2.078692 6,000 317 249 -64
2022-05-15 05:53:49 GMT 53.412506 -2.077201 6,000 317 249 -64
2022-05-15 05:53:48 GMT 53.410873 -2.074154 6,000 317 249 -64
2022-05-15 05:53:45 GMT 53.408569 -2.070530 6,000 322 249 0
2022-05-15 05:53:42 GMT 53.406647 -2.068098 6,000 330 250 0
2022-05-15 05:53:40 GMT 53.404587 -2.065753 6,000 332 250 64
2022-05-15 05:53:38 GMT 53.399414 -2.061663 6,000 336 250 64
2022-05-15 05:53:35 GMT 53.399414 -2.061663 6,000 343 251 0
2022-05-15 05:53:33 GMT 53.397125 -2.060329 6,000 345 250 0
2022-05-15 05:53:31 GMT 53.394882 -2.059466 6,000 351 251 0
2022-05-15 05:53:29 GMT 53.392136 -2.058681 6,000 355 250 0
2022-05-15 05:53:27 GMT 53.390030 -2.058367 6,000 0 251 0
2022-05-15 05:53:25 GMT 53.388107 -2.058367 6,000 1 251 0
2022-05-15 05:53:24 GMT 53.387054 -2.058446 6,000 3 250 0
2022-05-15 05:53:22 GMT 53.384617 -2.058806 6,000 7 250 64
2022-05-15 05:53:21 GMT 53.383530 -2.059073 6,000 9 248 64
2022-05-15 05:53:19 GMT 53.381081 -2.059937 6,000 14 248 64
2022-05-15 05:53:18 GMT 53.380051 -2.060407 6,000 18 247 64
2022-05-15 05:53:17 GMT 53.379044 -2.060878 6,000 20 247 64
2022-05-15 05:53:14 GMT 53.376709 -2.062291 6,000 20 247 64
2022-05-15 05:53:13 GMT 53.375633 -2.063087 6,000 26 245 0
2022-05-15 05:53:12 GMT 53.374607 -2.063895 6,000 28 244 0
2022-05-15 05:53:11 GMT 53.371723 -2.066641 6,000 32 244 0
2022-05-15 05:53:09 GMT 53.371723 -2.066641 6,000 34 242 64
2022-05-15 05:53:08 GMT 53.370850 -2.067627 6,000 36 243 64
2022-05-15 05:53:06 GMT 53.369064 -2.069824 5,975 38 242 0
2022-05-15 05:53:05 GMT 53.367764 -2.071569 6,000 39 242 0
2022-05-15 05:53:04 GMT 53.366913 -2.072806 6,000 45 239 0
2022-05-15 05:53:02 GMT 53.365578 -2.074962 6,000 46 239 0
2022-05-15 05:53:01 GMT 53.364807 -2.076181 6,000 48 239 -64
2022-05-15 05:53:00 GMT 53.363983 -2.077672 6,000 49 238 -64
2022-05-15 05:52:59 GMT 53.362656 -2.080340 6,000 50 238 -64
2022-05-15 05:52:57 GMT 53.361713 -2.082232 6,000 51 237 0
2022-05-15 05:52:55 GMT 53.360321 -2.085205 6,000 51 237 0
2022-05-15 05:52:54 GMT 53.359665 -2.086595 6,000 51 237 -64
2022-05-15 05:52:52 GMT 53.356796 -2.092503 6,000 51 237 -64
2022-05-15 05:52:50 GMT 53.356796 -2.092503 6,000 51 237 0
2022-05-15 05:52:49 GMT 53.356174 -2.093865 6,000 51 237 0
2022-05-15 05:52:48 GMT 53.354778 -2.096773 6,000 51 236 64
2022-05-15 05:52:46 GMT 53.354172 -2.098066 6,000 51 236 64
2022-05-15 05:52:45 GMT 53.352859 -2.100821 6,000 51 236 64
2022-05-15 05:52:42 GMT 53.351257 -2.104117 6,000 51 235 -192
2022-05-15 05:52:40 GMT 53.349838 -2.107099 6,000 51 235 0
2022-05-15 05:52:39 GMT 53.349152 -2.108512 6,000 51 236 128
2022-05-15 05:52:37 GMT 53.347824 -2.111180 6,000 51 236 192
2022-05-15 05:52:36 GMT 53.347092 -2.112749 6,000 51 235 192
2022-05-15 05:52:34 GMT 53.345306 -2.116438 6,000 50 234 128
2022-05-15 05:52:32 GMT 53.344582 -2.117857 6,000 50 234 64
2022-05-15 05:52:31 GMT 53.343185 -2.120846 6,000 51 234 0
2022-05-15 05:52:29 GMT 53.342377 -2.122480 6,000 51 234 -64
2022-05-15 05:52:28 GMT 53.341694 -2.123916 6,000 51 233 -320
2022-05-15 05:52:26 GMT 53.340252 -2.126905 6,000 51 233 -192
2022-05-15 05:52:25 GMT 53.339600 -2.128359 6,000 51 233 -128
2022-05-15 05:52:24 GMT 53.338898 -2.129778 6,000 51 234 -256
2022-05-15 05:52:22 GMT 53.337570 -2.132603 6,000 51 233 128
2022-05-15 05:52:20 GMT 53.336472 -2.134879 6,000 51 233 64
2022-05-15 05:52:19 GMT 53.335693 -2.136448 6,000 51 233 192
2022-05-15 05:52:18 GMT 53.334915 -2.138096 6,000 50 233 0
2022-05-15 05:52:17 GMT 53.334339 -2.139264 6,000 50 232 -64
2022-05-15 05:52:15 GMT 53.332943 -2.142092 6,000 50 232 0
2022-05-15 05:52:13 GMT 53.331573 -2.144924 6,000 50 232 -64
2022-05-15 05:52:12 GMT 53.330894 -2.146212 6,000 50 232 -64
2022-05-15 05:52:11 GMT 53.330292 -2.147504 6,000 50 232 -128
2022-05-15 05:52:09 GMT 53.328846 -2.150412 6,000 50 233 -128
2022-05-15 05:52:08 GMT 53.328140 -2.151829 6,000 50 233 -128
2022-05-15 05:52:07 GMT 53.326813 -2.154497 6,000 49 234 -64
2022-05-15 05:52:05 GMT 53.326008 -2.156067 6,000 49 234 128
2022-05-15 05:52:04 GMT 53.325073 -2.157950 6,000 49 234 128
2022-05-15 05:52:03 GMT 53.324005 -2.160025 6,000 49 234 128
2022-05-15 05:52:00 GMT 53.322609 -2.162853 6,000 49 234 64
2022-05-15 05:51:58 GMT 53.321136 -2.165641 6,000 49 235 0
2022-05-15 05:51:57 GMT 53.320450 -2.167053 6,000 49 235 0
2022-05-15 05:51:56 GMT 53.318699 -2.170446 6,000 49 236 -64
2022-05-15 05:51:54 GMT 53.318001 -2.171819 6,000 49 236 -64
2022-05-15 05:51:52 GMT 53.316879 -2.173959 6,000 49 236 -64
2022-05-15 05:51:51 GMT 53.315907 -2.175778 6,000 49 237 -128
2022-05-15 05:51:49 GMT 53.314453 -2.178667 6,000 49 237 -128
2022-05-15 05:51:48 GMT 53.313763 -2.179978 6,000 49 238 -64
2022-05-15 05:51:47 GMT 53.313034 -2.181414 6,000 49 238 -64
2022-05-15 05:51:45 GMT 53.311661 -2.184082 6,000 49 238 0
2022-05-15 05:51:44 GMT 53.310879 -2.185552 6,000 49 238 0
2022-05-15 05:51:43 GMT 53.310150 -2.186986 6,000 49 238 0
2022-05-15 05:51:42 GMT 53.308640 -2.189968 6,000 49 238 0
2022-05-15 05:51:40 GMT 53.307945 -2.191288 6,000 49 238 0
2022-05-15 05:51:38 GMT 53.305805 -2.195488 6,000 49 238 0
2022-05-15 05:51:36 GMT 53.305199 -2.196700 6,000 49 237 0
2022-05-15 05:51:35 GMT 53.304611 -2.197893 6,000 50 237 64
2022-05-15 05:51:34 GMT 53.303059 -2.201143 6,000 51 237 128
2022-05-15 05:51:32 GMT 53.302277 -2.202837 6,000 52 237 128
2022-05-15 05:51:31 GMT 53.301662 -2.204213 6,000 55 236 64
2022-05-15 05:51:29 GMT 53.300400 -2.207310 6,000 57 235 0
2022-05-15 05:51:27 GMT 53.299564 -2.209706 6,000 61 233 0
2022-05-15 05:51:26 GMT 53.298588 -2.212937 6,000 66 232 0
2022-05-15 05:51:24 GMT 53.298077 -2.214714 6,000 66 232 0
2022-05-15 05:51:23 GMT 53.297699 -2.216256 6,000 70 230 0
2022-05-15 05:51:20 GMT 53.296726 -2.221015 6,000 76 228 0
2022-05-15 05:51:18 GMT 53.296326 -2.223397 6,000 78 227 0
2022-05-15 05:51:17 GMT 53.295887 -2.227074 6,000 81 227 0
2022-05-15 05:51:15 GMT 53.295731 -2.228734 6,000 83 226 0
2022-05-15 05:51:13 GMT 53.295517 -2.232406 6,000 85 225 0
2022-05-15 05:51:12 GMT 53.295410 -2.235796 6,000 88 225 0
2022-05-15 05:51:09 GMT 53.295456 -2.239406 6,000 92 224 0
2022-05-15 05:51:08 GMT 53.295654 -2.242988 6,000 96 223 0
2022-05-15 05:51:06 GMT 53.295731 -2.243879 6,000 99 222 0
2022-05-15 05:51:04 GMT 53.296215 -2.248158 6,000 101 221 0
2022-05-15 05:51:02 GMT 53.296555 -2.250785 6,000 105 221 0
2022-05-15 05:51:01 GMT 53.297287 -2.254473 6,000 109 220 0
2022-05-15 05:50:59 GMT 53.297657 -2.256156 6,000 110 220 0
2022-05-15 05:50:58 GMT 53.298019 -2.257612 6,000 114 219 0
2022-05-15 05:50:56 GMT 53.298820 -2.260599 6,000 117 218 0
2022-05-15 05:50:55 GMT 53.299286 -2.262133 6,000 117 218 0
2022-05-15 05:50:54 GMT 53.300400 -2.265224 6,000 122 216 0
2022-05-15 05:50:52 GMT 53.300682 -2.266011 6,000 124 217 0
2022-05-15 05:50:51 GMT 53.302094 -2.269383 6,000 128 217 0
2022-05-15 05:50:49 GMT 53.302643 -2.270560 6,000 129 216 0
2022-05-15 05:50:47 GMT 53.303894 -2.273039 6,000 133 215 0
2022-05-15 05:50:46 GMT 53.304520 -2.274170 6,000 135 215 0
2022-05-15 05:50:44 GMT 53.305897 -2.276432 6,000 138 215 0
2022-05-15 05:50:43 GMT 53.306736 -2.277644 6,000 140 215 0
2022-05-15 05:50:42 GMT 53.307587 -2.278878 6,000 141 215 0
2022-05-15 05:50:40 GMT 53.309097 -2.280762 6,000 143 214 0
2022-05-15 05:50:39 GMT 53.309948 -2.281763 6,000 147 214 0
2022-05-15 05:50:38 GMT 53.311531 -2.283460 6,000 150 214 0
2022-05-15 05:50:35 GMT 53.313206 -2.284995 6,000 154 214 0
2022-05-15 05:50:33 GMT 53.315277 -2.286647 6,000 157 214 0
2022-05-15 05:50:32 GMT 53.316231 -2.287337 6,000 159 213 0
2022-05-15 05:50:31 GMT 53.317162 -2.287903 6,000 162 213 0
2022-05-15 05:50:30 GMT 53.319023 -2.288872 6,000 164 213 0
2022-05-15 05:50:28 GMT 53.320004 -2.289357 6,000 166 214 0
2022-05-15 05:50:27 GMT 53.321026 -2.289761 6,000 167 213 0
2022-05-15 05:50:24 GMT 53.323608 -2.290571 6,000 173 214 0
2022-05-15 05:50:22 GMT 53.325577 -2.290885 6,000 176 214 0
2022-05-15 05:50:20 GMT 53.327728 -2.291053 6,000 178 214 0
2022-05-15 05:50:19 GMT 53.328800 -2.291053 6,000 182 215 0
2022-05-15 05:50:18 GMT 53.329918 -2.290973 6,000 186 216 0
2022-05-15 05:50:17 GMT 53.331940 -2.290728 6,000 188 215 0
2022-05-15 05:50:14 GMT 53.333313 -2.290414 6,000 190 215 0
2022-05-15 05:50:13 GMT 53.334435 -2.290003 6,000 194 216 64
2022-05-15 05:50:12 GMT 53.335464 -2.289629 6,000 197 217 64
2022-05-15 05:50:11 GMT 53.337570 -2.288688 6,000 197 217 64
2022-05-15 05:50:09 GMT 53.338531 -2.288138 6,000 201 217 64
2022-05-15 05:50:08 GMT 53.339447 -2.287589 6,000 203 218 64
2022-05-15 05:50:06 GMT 53.341324 -2.286255 6,000 206 219 64
2022-05-15 05:50:05 GMT 53.342209 -2.285479 6,000 208 219 64
2022-05-15 05:50:04 GMT 53.343979 -2.283864 6,000 212 221 64
2022-05-15 05:50:02 GMT 53.344769 -2.283056 6,000 214 221 64
2022-05-15 05:50:01 GMT 53.345627 -2.282096 6,000 216 222 0
2022-05-15 05:50:00 GMT 53.347420 -2.279905 6,000 220 224 0
2022-05-15 05:49:58 GMT 53.348190 -2.278800 6,000 222 224 0
2022-05-15 05:49:57 GMT 53.348911 -2.277724 6,000 224 225 -64
2022-05-15 05:49:55 GMT 53.350388 -2.275347 6,000 227 226 -128
2022-05-15 05:49:54 GMT 53.351120 -2.274091 6,000 229 227 -128
2022-05-15 05:49:53 GMT 53.352543 -2.271423 6,000 231 228 -64
2022-05-15 05:49:51 GMT 53.353195 -2.270050 6,000 232 227 0
2022-05-15 05:49:50 GMT 53.353893 -2.268677 6,000 232 228 64
2022-05-15 05:49:48 GMT 53.355560 -2.265224 6,000 232 228 64
2022-05-15 05:49:47 GMT 53.356174 -2.263911 6,000 232 228 64
2022-05-15 05:49:46 GMT 53.356796 -2.262556 6,000 232 228 64
2022-05-15 05:49:45 GMT 53.358170 -2.259652 6,000 232 227 0
2022-05-15 05:49:43 GMT 53.358765 -2.258475 6,000 232 227 0
2022-05-15 05:49:42 GMT 53.359432 -2.256963 6,000 232 227 0
2022-05-15 05:49:41 GMT 53.360733 -2.254316 6,000 232 227 -64
2022-05-15 05:49:39 GMT 53.361328 -2.253060 6,000 232 228 0
2022-05-15 05:49:38 GMT 53.362598 -2.250339 6,000 233 228 0
2022-05-15 05:49:36 GMT 53.363201 -2.248966 6,000 233 228 0
2022-05-15 05:49:34 GMT 53.364624 -2.245998 6,000 233 228 0
2022-05-15 05:49:32 GMT 53.367004 -2.240819 6,000 233 228 0
2022-05-15 05:49:30 GMT 53.367004 -2.240819 6,000 233 228 0
2022-05-15 05:49:29 GMT 53.368462 -2.237657 6,000 233 228 0
2022-05-15 05:49:27 GMT 53.369064 -2.236346 6,000 233 228 0
2022-05-15 05:49:26 GMT 53.369629 -2.235152 6,000 233 228 0
2022-05-15 05:49:25 GMT 53.371490 -2.231009 6,000 233 228 0
2022-05-15 05:49:23 GMT 53.371490 -2.231009 6,000 233 228 0
2022-05-15 05:49:22 GMT 53.372421 -2.229013 6,000 233 228 -64
2022-05-15 05:49:20 GMT 53.373459 -2.226850 6,000 233 228 -64
2022-05-15 05:49:18 GMT 53.374702 -2.224085 6,000 233 228 0
2022-05-15 05:49:16 GMT 53.376053 -2.221177 6,000 233 228 -64
2022-05-15 05:49:15 GMT 53.376747 -2.219642 6,000 233 228 -128
2022-05-15 05:49:14 GMT 53.377354 -2.218430 6,025 233 228 -64
2022-05-15 05:49:12 GMT 53.378632 -2.215707 6,000 232 227 -64
2022-05-15 05:49:11 GMT 53.379456 -2.213902 6,025 232 227 0
2022-05-15 05:49:09 GMT 53.380798 -2.211079 6,025 232 227 64
2022-05-15 05:49:08 GMT 53.381542 -2.209625 6,000 231 227 128
2022-05-15 05:49:07 GMT 53.382202 -2.208330 6,000 230 227 128
2022-05-15 05:49:04 GMT 53.384338 -2.204455 6,000 225 226 64
2022-05-15 05:49:02 GMT 53.385639 -2.202436 6,000 224 225 64
2022-05-15 05:49:01 GMT 53.386665 -2.200901 6,000 220 224 64
2022-05-15 05:49:00 GMT 53.387512 -2.199777 6,000 216 224 64
2022-05-15 05:48:59 GMT 53.388901 -2.198154 6,000 214 223 64
2022-05-15 05:48:57 GMT 53.389847 -2.197187 6,000 212 223 0
2022-05-15 05:48:56 GMT 53.392578 -2.194681 6,000 208 222 0
2022-05-15 05:48:54 GMT 53.392578 -2.194681 6,000 206 222 0
2022-05-15 05:48:53 GMT 53.395706 -2.192400 6,000 203 221 0
2022-05-15 05:48:51 GMT 53.395706 -2.192400 6,000 201 221 -64
2022-05-15 05:48:50 GMT 53.396534 -2.191934 6,000 197 220 -64
2022-05-15 05:48:47 GMT 53.400238 -2.190203 6,000 192 219 -64
2022-05-15 05:48:44 GMT 53.401199 -2.189811 6,000 192 219 0
2022-05-15 05:48:43 GMT 53.402298 -2.189418 6,000 191 219 0
2022-05-15 05:48:42 GMT 53.404633 -2.188622 6,000 191 219 64
2022-05-15 05:48:40 GMT 53.405518 -2.188380 6,000 191 219 64
2022-05-15 05:48:39 GMT 53.406448 -2.188056 6,000 192 220 64
2022-05-15 05:48:37 GMT 53.408478 -2.187378 6,000 194 220 64
2022-05-15 05:48:36 GMT 53.409428 -2.186926 6,000 197 221 0
2022-05-15 05:48:35 GMT 53.410446 -2.186436 6,000 199 221 0
2022-05-15 05:48:34 GMT 53.412552 -2.185259 6,000 202 222 0
2022-05-15 05:48:32 GMT 53.413422 -2.184710 6,000 204 222 0
2022-05-15 05:48:31 GMT 53.414337 -2.184004 6,000 206 221 0
2022-05-15 05:48:30 GMT 53.416122 -2.182591 6,000 213 223 0
2022-05-15 05:48:27 GMT 53.418228 -2.180551 6,000 215 223 0
2022-05-15 05:48:24 GMT 53.421577 -2.176585 6,000 223 225 -64
2022-05-15 05:48:21 GMT 53.422714 -2.174979 6,000 224 224 -64
2022-05-15 05:48:18 GMT 53.425003 -2.171134 6,000 230 226 0
2022-05-15 05:48:17 GMT 53.425781 -2.169721 6,000 230 226 0
2022-05-15 05:48:16 GMT 53.428375 -2.163903 6,000 240 228 0
2022-05-15 05:48:14 GMT 53.429535 -2.160697 6,000 240 228 0
2022-05-15 05:48:11 GMT 53.429535 -2.160697 6,000 242 228 0
2022-05-15 05:48:10 GMT 53.430130 -2.158970 6,000 246 229 0
2022-05-15 05:48:08 GMT 53.431030 -2.155663 6,000 248 229 0
2022-05-15 05:48:06 GMT 53.431824 -2.152457 6,000 253 231 64
2022-05-15 05:48:04 GMT 53.432938 -2.146050 6,000 255 230 64
2022-05-15 05:48:02 GMT 53.432938 -2.146050 6,000 259 232 0
2022-05-15 05:48:00 GMT 53.433609 -2.138881 6,000 265 234 -64
2022-05-15 05:47:58 GMT 53.433609 -2.138881 6,000 267 235 -64
2022-05-15 05:47:57 GMT 53.433681 -2.137002 6,000 269 235 -64
2022-05-15 05:47:55 GMT 53.433701 -2.133388 6,000 273 237 -64
2022-05-15 05:47:54 GMT 53.433681 -2.131671 6,000 275 237 -64
2022-05-15 05:47:53 GMT 53.433609 -2.129935 6,000 277 238 -64
2022-05-15 05:47:51 GMT 53.433311 -2.125935 6,000 280 241 -64
2022-05-15 05:47:49 GMT 53.433029 -2.123350 6,000 282 242 0
2022-05-15 05:47:48 GMT 53.432796 -2.121492 6,000 284 241 0
2022-05-15 05:47:47 GMT 53.432381 -2.118907 6,000 288 242 0
2022-05-15 05:47:45 GMT 53.431309 -2.113656 6,000 296 244 64
2022-05-15 05:47:42 GMT 53.430359 -2.110081 6,000 312 248 0
2022-05-15 05:47:40 GMT 53.429260 -2.106709 6,000 312 248 0
2022-05-15 05:47:37 GMT 53.427490 -2.102105 6,000 312 248 0
2022-05-15 05:47:35 GMT 53.424931 -2.096935 6,000 315 248 0
2022-05-15 05:47:33 GMT 53.424454 -2.096191 6,000 316 249 -192
2022-05-15 05:47:31 GMT 53.421532 -2.091684 6,000 322 251 128
2022-05-15 05:47:29 GMT 53.420696 -2.090634 6,000 324 251 128
2022-05-15 05:47:27 GMT 53.419296 -2.088856 6,000 326 251 64
2022-05-15 05:47:25 GMT 53.416672 -2.086225 6,000 337 253 -64
2022-05-15 05:47:22 GMT 53.413925 -2.084028 6,000 339 253 64
2022-05-15 05:47:21 GMT 53.412689 -2.083202 6,000 341 253 64
2022-05-15 05:47:20 GMT 53.411316 -2.082380 6,000 345 253 -64
2022-05-15 05:47:16 GMT 53.405426 -2.080213 6,000 353 254 0
2022-05-15 05:47:12 GMT 53.398956 -2.079869 6,000 0 253 64
2022-05-15 05:47:09 GMT 53.398956 -2.079869 6,000 2 253 64
2022-05-15 05:47:07 GMT 53.397186 -2.080132 6,000 9 252 64
2022-05-15 05:47:06 GMT 53.395981 -2.080418 6,000 9 252 64
2022-05-15 05:47:05 GMT 53.394379 -2.080967 6,000 13 250 64
2022-05-15 05:47:03 GMT 53.391739 -2.082152 6,000 23 248 0
2022-05-15 05:47:01 GMT 53.389690 -2.083363 6,000 23 248 0
2022-05-15 05:46:59 GMT 53.387505 -2.084979 6,000 23 248 0
2022-05-15 05:46:58 GMT 53.386337 -2.085867 6,000 30 247 0
2022-05-15 05:46:56 GMT 53.384811 -2.087324 6,000 30 247 0
2022-05-15 05:46:55 GMT 53.383942 -2.088266 6,000 32 245 0
2022-05-15 05:46:52 GMT 53.381241 -2.091561 6,000 36 244 0
2022-05-15 05:46:51 GMT 53.380280 -2.092896 6,000 42 242 0
2022-05-15 05:46:50 GMT 53.379364 -2.094308 6,000 46 241 64
2022-05-15 05:46:48 GMT 53.377773 -2.097015 6,000 50 239 0
2022-05-15 05:46:47 GMT 53.377075 -2.098469 6,000 54 238 64
2022-05-15 05:46:45 GMT 53.375679 -2.101378 6,000 56 237 64
2022-05-15 05:46:43 GMT 53.374794 -2.103478 6,000 56 237 64
2022-05-15 05:46:42 GMT 53.373138 -2.108041 6,000 62 234 64
2022-05-15 05:46:40 GMT 53.372681 -2.109689 5,975 64 234 0
2022-05-15 05:46:39 GMT 53.372421 -2.110587 5,975 67 233 -128
2022-05-15 05:46:38 GMT 53.371948 -2.112279 6,000 67 233 -128
2022-05-15 05:46:36 GMT 53.371170 -2.115810 6,000 71 232 -64
2022-05-15 05:46:35 GMT 53.370838 -2.117453 6,000 72 231 -64
2022-05-15 05:46:34 GMT 53.370255 -2.120754 6,000 76 229 -64
2022-05-15 05:46:32 GMT 53.369862 -2.123269 6,000 78 228 -128
2022-05-15 05:46:31 GMT 53.369659 -2.124913 6,000 79 227 -64
2022-05-15 05:46:30 GMT 53.369488 -2.126582 6,000 80 227 -64
2022-05-15 05:46:28 GMT 53.369110 -2.129935 6,000 80 227 0
2022-05-15 05:46:27 GMT 53.368927 -2.131897 6,000 80 226 0
2022-05-15 05:46:25 GMT 53.368370 -2.137083 6,000 80 226 0
2022-05-15 05:46:23 GMT 53.368195 -2.138881 6,000 80 225 0
2022-05-15 05:46:22 GMT 53.368046 -2.140557 6,000 80 225 0
2022-05-15 05:46:21 GMT 53.367718 -2.143626 6,000 80 225 0
2022-05-15 05:46:19 GMT 53.367554 -2.145394 6,000 80 225 0
2022-05-15 05:46:18 GMT 53.367020 -2.150251 6,000 80 225 0
2022-05-15 05:46:16 GMT 53.367020 -2.150251 6,000 80 224 0
2022-05-15 05:46:15 GMT 53.366695 -2.153886 6,000 80 224 0
2022-05-15 05:46:13 GMT 53.366508 -2.155582 6,000 80 224 0
2022-05-15 05:46:12 GMT 53.366367 -2.157117 6,000 80 224 0
2022-05-15 05:46:10 GMT 53.365952 -2.160775 6,000 80 224 0
2022-05-15 05:46:09 GMT 53.365814 -2.162502 6,000 80 224 0
2022-05-15 05:46:08 GMT 53.365345 -2.167053 6,000 80 224 -64
2022-05-15 05:46:06 GMT 53.365345 -2.167053 6,000 80 224 -64
2022-05-15 05:46:05 GMT 53.364971 -2.170769 6,000 80 224 -64
2022-05-15 05:46:03 GMT 53.364761 -2.172546 6,000 80 224 0
2022-05-15 05:46:01 GMT 53.364578 -2.174430 6,000 80 224 0
2022-05-15 05:46:00 GMT 53.364395 -2.176156 6,000 80 223 0
2022-05-15 05:45:58 GMT 53.363899 -2.181190 6,000 80 223 0
2022-05-15 05:45:56 GMT 53.363716 -2.183048 6,000 80 222 64
2022-05-15 05:45:54 GMT 53.363155 -2.188622 6,000 80 222 0
2022-05-15 05:45:52 GMT 53.362968 -2.190318 6,000 80 222 0
2022-05-15 05:45:51 GMT 53.362785 -2.192015 6,000 80 222 0
2022-05-15 05:45:50 GMT 53.362644 -2.193711 6,000 80 222 0
2022-05-15 05:45:49 GMT 53.362289 -2.197030 6,000 80 222 -64
2022-05-15 05:45:47 GMT 53.362133 -2.198639 6,000 80 223 0
2022-05-15 05:45:45 GMT 53.361786 -2.201974 6,000 80 223 0
2022-05-15 05:45:44 GMT 53.361622 -2.203728 6,000 80 223 0
2022-05-15 05:45:42 GMT 53.361237 -2.207389 6,000 80 224 64
2022-05-15 05:45:40 GMT 53.360916 -2.210606 6,000 80 224 64
2022-05-15 05:45:39 GMT 53.360733 -2.212333 6,000 80 223 64
2022-05-15 05:45:37 GMT 53.360409 -2.215684 6,000 80 223 64
2022-05-15 05:45:36 GMT 53.360271 -2.217380 6,000 81 223 0
2022-05-15 05:45:35 GMT 53.359772 -2.222613 6,000 81 224 0
2022-05-15 05:45:33 GMT 53.359772 -2.222613 6,000 81 224 0
2022-05-15 05:45:32 GMT 53.359619 -2.224408 6,000 81 224 0
2022-05-15 05:45:31 GMT 53.359314 -2.227870 6,000 81 224 0
2022-05-15 05:45:28 GMT 53.358994 -2.231166 6,000 82 224 0
2022-05-15 05:45:27 GMT 53.358856 -2.233050 6,000 82 224 0
2022-05-15 05:45:25 GMT 53.358627 -2.236110 6,000 82 224 0
2022-05-15 05:45:24 GMT 53.358456 -2.237980 6,000 82 224 0
2022-05-15 05:45:22 GMT 53.358215 -2.241289 6,000 83 224 0
2022-05-15 05:45:21 GMT 53.358082 -2.243150 6,000 83 224 0
2022-05-15 05:45:19 GMT 53.357712 -2.248195 6,000 83 225 0
2022-05-15 05:45:17 GMT 53.357616 -2.250016 6,000 83 224 0
2022-05-15 05:45:16 GMT 53.357254 -2.255258 6,000 83 224 -64
2022-05-15 05:45:14 GMT 53.357059 -2.258256 6,000 83 224 0
2022-05-15 05:45:13 GMT 53.357059 -2.258256 6,000 83 224 0
2022-05-15 05:45:11 GMT 53.356934 -2.260437 6,000 83 224 64
2022-05-15 05:45:10 GMT 53.356731 -2.263426 6,000 83 224 64
2022-05-15 05:45:09 GMT 53.356659 -2.264910 6,000 83 223 64
2022-05-15 05:45:08 GMT 53.356567 -2.266479 6,000 83 223 0
2022-05-15 05:45:07 GMT 53.356312 -2.270131 6,000 83 223 0
2022-05-15 05:45:05 GMT 53.356201 -2.271737 6,000 83 223 64
2022-05-15 05:45:04 GMT 53.356110 -2.273464 6,000 83 223 0
2022-05-15 05:45:02 GMT 53.355892 -2.276997 6,000 83 223 0
2022-05-15 05:45:01 GMT 53.355789 -2.278800 6,000 83 223 0
2022-05-15 05:45:00 GMT 53.355652 -2.280526 6,000 83 223 0
2022-05-15 05:44:57 GMT 53.355335 -2.285560 6,000 83 224 0
2022-05-15 05:44:55 GMT 53.355148 -2.288923 6,000 84 225 0
2022-05-15 05:44:53 GMT 53.354919 -2.292062 6,000 84 225 0
2022-05-15 05:44:51 GMT 53.354691 -2.295829 6,000 83 225 0
2022-05-15 05:44:50 GMT 53.354591 -2.297516 6,000 83 226 64
2022-05-15 05:44:49 GMT 53.354450 -2.299374 6,000 83 226 64
2022-05-15 05:44:47 GMT 53.354279 -2.302813 6,000 83 226 64
2022-05-15 05:44:46 GMT 53.354141 -2.304696 6,000 83 226 0
2022-05-15 05:44:43 GMT 53.353798 -2.309875 6,000 83 227 0
2022-05-15 05:44:42 GMT 53.353592 -2.313642 6,000 83 228 64
2022-05-15 05:44:40 GMT 53.353474 -2.315449 6,000 83 228 64
2022-05-15 05:44:39 GMT 53.353226 -2.319057 6,000 83 229 0
2022-05-15 05:44:37 GMT 53.353134 -2.320626 6,000 83 229 0
2022-05-15 05:44:36 GMT 53.353054 -2.322154 6,000 84 230 0
2022-05-15 05:44:34 GMT 53.352821 -2.325870 6,000 84 230 0
2022-05-15 05:44:33 GMT 53.352722 -2.327375 6,000 84 231 -64
2022-05-15 05:44:32 GMT 53.352589 -2.329182 6,000 84 232 -64
2022-05-15 05:44:30 GMT 53.352356 -2.332979 6,000 84 233 -64
2022-05-15 05:44:29 GMT 53.352219 -2.335066 6,000 84 234 0
2022-05-15 05:44:28 GMT 53.352032 -2.338553 6,000 84 235 0
2022-05-15 05:44:26 GMT 53.351891 -2.340330 6,000 84 235 0
2022-05-15 05:44:25 GMT 53.351807 -2.342050 6,000 84 235 0
2022-05-15 05:44:23 GMT 53.351624 -2.345267 6,000 84 236 0
2022-05-15 05:44:22 GMT 53.351379 -2.349055 6,000 84 238 0
2022-05-15 05:44:20 GMT 53.351257 -2.350760 6,000 84 238 0
2022-05-15 05:44:19 GMT 53.351147 -2.352690 6,000 84 239 0
2022-05-15 05:44:18 GMT 53.350914 -2.356729 6,000 84 240 0
2022-05-15 05:44:16 GMT 53.350819 -2.358425 6,000 84 242 0
2022-05-15 05:44:14 GMT 53.350662 -2.361276 6,000 84 242 0
2022-05-15 05:44:13 GMT 53.350494 -2.363838 6,000 84 244 -64
2022-05-15 05:44:12 GMT 53.350388 -2.365592 6,000 84 245 -64
2022-05-15 05:44:10 GMT 53.350216 -2.369089 6,000 84 247 -64
2022-05-15 05:44:09 GMT 53.350075 -2.371027 6,000 84 248 -64
2022-05-15 05:44:08 GMT 53.349976 -2.372811 6,000 84 249 -64
2022-05-15 05:44:06 GMT 53.349747 -2.376814 6,000 84 251 0
2022-05-15 05:44:05 GMT 53.349655 -2.378702 6,000 84 252 0
2022-05-15 05:44:04 GMT 53.349426 -2.382621 6,000 84 254 0
2022-05-15 05:44:02 GMT 53.349285 -2.384679 6,000 84 255 0
2022-05-15 05:44:01 GMT 53.349144 -2.386861 6,000 84 256 0
2022-05-15 05:44:00 GMT 53.349052 -2.388799 6,000 84 257 0
2022-05-15 05:43:58 GMT 53.348785 -2.392901 6,000 84 260 64
2022-05-15 05:43:57 GMT 53.348694 -2.395098 6,000 84 261 64
2022-05-15 05:43:56 GMT 53.348537 -2.397443 6,000 84 261 64
2022-05-15 05:43:54 GMT 53.348328 -2.400513 6,000 83 265 64
2022-05-15 05:43:53 GMT 53.348213 -2.402694 6,000 83 266 64
2022-05-15 05:43:52 GMT 53.347916 -2.406869 5,975 82 269 64
2022-05-15 05:43:50 GMT 53.347733 -2.408674 5,975 82 269 64
2022-05-15 05:43:49 GMT 53.347561 -2.410853 5,975 80 271 64
2022-05-15 05:43:48 GMT 53.347095 -2.415377 5,975 78 273 0
2022-05-15 05:43:46 GMT 53.346863 -2.417620 5,975 77 274 0
2022-05-15 05:43:44 GMT 53.345840 -2.424101 5,975 73 278 0
2022-05-15 05:43:42 GMT 53.345467 -2.425959 5,975 71 278 64
2022-05-15 05:43:41 GMT 53.344536 -2.430160 5,975 67 280 0
2022-05-15 05:43:38 GMT 53.344116 -2.431937 6,000 65 280 0
2022-05-15 05:43:37 GMT 53.343613 -2.433864 6,000 64 281 0
2022-05-15 05:43:36 GMT 53.342468 -2.437945 6,000 63 281 -64
2022-05-15 05:43:34 GMT 53.341873 -2.439907 6,000 61 280 -64
2022-05-15 05:43:33 GMT 53.341232 -2.441790 6,000 60 281 -64
2022-05-15 05:43:31 GMT 53.339928 -2.445670 6,000 59 282 0
2022-05-15 05:43:30 GMT 53.339355 -2.447283 6,000 59 281 0
2022-05-15 05:43:29 GMT 53.337971 -2.451082 6,000 59 281 0
2022-05-15 05:43:27 GMT 53.337341 -2.452933 6,000 59 281 0
2022-05-15 05:43:26 GMT 53.336609 -2.454973 6,000 59 281 0
2022-05-15 05:43:24 GMT 53.335270 -2.458756 6,000 59 281 0
2022-05-15 05:43:23 GMT 53.334641 -2.460545 6,000 59 281 0
2022-05-15 05:43:22 GMT 53.333313 -2.464312 6,000 59 281 -64
2022-05-15 05:43:20 GMT 53.332664 -2.466027 6,000 59 281 -64
2022-05-15 05:43:19 GMT 53.331921 -2.468127 6,000 59 280 -64
2022-05-15 05:43:17 GMT 53.330662 -2.471681 6,000 59 280 -64
2022-05-15 05:43:16 GMT 53.329971 -2.473572 6,000 59 280 0
2022-05-15 05:43:14 GMT 53.328663 -2.477255 6,000 58 281 -128
2022-05-15 05:43:12 GMT 53.327404 -2.480729 6,025 58 281 -128
2022-05-15 05:43:11 GMT 53.325668 -2.485500 6,025 58 280 -192
2022-05-15 05:43:09 GMT 53.325348 -2.486441 6,025 58 281 -192
2022-05-15 05:43:08 GMT 53.324612 -2.488323 6,025 58 281 -192
2022-05-15 05:43:06 GMT 53.323170 -2.492200 6,025 57 281 -192
2022-05-15 05:43:05 GMT 53.322468 -2.494058 6,050 56 282 -256
2022-05-15 05:43:04 GMT 53.321026 -2.497693 6,050 56 282 -384
2022-05-15 05:43:02 GMT 53.320038 -2.500096 6,050 55 282 -448
2022-05-15 05:43:01 GMT 53.319397 -2.501652 6,075 54 284 -512
2022-05-15 05:43:00 GMT 53.318024 -2.504726 6,075 51 284 -768
2022-05-15 05:42:58 GMT 53.317162 -2.506498 6,100 49 285 -832
2022-05-15 05:42:57 GMT 53.316231 -2.508356 6,125 48 286 -896
2022-05-15 05:42:56 GMT 53.314545 -2.511553 6,150 44 286 -1088
2022-05-15 05:42:54 GMT 53.313492 -2.513280 6,175 43 287 -1088
2022-05-15 05:42:53 GMT 53.312599 -2.514738 6,200 41 287 -1088
2022-05-15 05:42:51 GMT 53.310562 -2.517753 6,225 38 287 -1088
2022-05-15 05:42:50 GMT 53.309418 -2.519322 6,250 37 288 -1088
2022-05-15 05:42:49 GMT 53.307480 -2.521847 6,275 36 288 -1024
2022-05-15 05:42:47 GMT 53.306488 -2.523089 6,300 35 288 -960
2022-05-15 05:42:46 GMT 53.305389 -2.524344 6,300 35 287 -960
2022-05-15 05:42:45 GMT 53.301590 -2.528896 6,350 35 288 -960
2022-05-15 05:42:43 GMT 53.301590 -2.528896 6,350 35 288 -960
2022-05-15 05:42:41 GMT 53.299438 -2.531485 6,375 35 288 -960
2022-05-15 05:42:40 GMT 53.298309 -2.532833 6,400 35 288 -960
2022-05-15 05:42:39 GMT 53.297241 -2.534075 6,425 35 288 -960
2022-05-15 05:42:36 GMT 53.293900 -2.537999 6,475 35 289 -960
2022-05-15 05:42:34 GMT 53.292305 -2.539942 6,500 35 289 -1024
2022-05-15 05:42:33 GMT 53.291061 -2.541373 6,500 35 289 -1024
2022-05-15 05:42:32 GMT 53.288811 -2.544062 6,525 35 289 -960
2022-05-15 05:42:30 GMT 53.287697 -2.545355 6,600 35 290 -960
2022-05-15 05:42:28 GMT 53.285088 -2.548505 6,600 35 291 -960
2022-05-15 05:42:26 GMT 53.283508 -2.550398 6,625 35 291 -960
2022-05-15 05:42:24 GMT 53.280804 -2.553594 6,650 35 291 -1024
2022-05-15 05:42:23 GMT 53.280293 -2.554241 6,675 35 291 -1024
2022-05-15 05:42:21 GMT 53.277966 -2.556987 6,700 35 291 -1024
2022-05-15 05:42:20 GMT 53.276733 -2.558480 6,725 35 291 -1024
2022-05-15 05:42:19 GMT 53.275684 -2.559734 6,750 35 292 -1024
2022-05-15 05:42:17 GMT 53.273495 -2.562399 6,775 35 292 -1024
2022-05-15 05:42:16 GMT 53.272430 -2.563581 6,775 35 293 -1024
2022-05-15 05:42:15 GMT 53.270844 -2.565469 6,800 35 292 -1024
2022-05-15 05:42:13 GMT 53.269169 -2.567489 6,825 34 292 -1024
2022-05-15 05:42:12 GMT 53.267632 -2.569266 6,850 34 293 -960
2022-05-15 05:42:11 GMT 53.266571 -2.570487 6,875 34 294 -960
2022-05-15 05:42:10 GMT 53.263489 -2.574032 6,900 34 293 -896
2022-05-15 05:42:08 GMT 53.263489 -2.574032 6,925 33 293 -896
2022-05-15 05:42:07 GMT 53.261906 -2.575728 6,950 33 293 -832
2022-05-15 05:42:06 GMT 53.259624 -2.578233 6,975 32 293 -640
2022-05-15 05:42:04 GMT 53.258514 -2.579354 6,975 31 293 -576
2022-05-15 05:42:02 GMT 53.256363 -2.581630 7,000 31 293 -448
2022-05-15 05:42:01 GMT 53.255402 -2.582493 7,000 30 292 -192
2022-05-15 05:42:00 GMT 53.254257 -2.583670 7,000 30 292 -64
2022-05-15 05:41:58 GMT 53.251785 -2.586025 7,000 29 292 0
2022-05-15 05:41:57 GMT 53.250546 -2.587199 7,000 28 292 0
2022-05-15 05:41:55 GMT 53.247025 -2.590341 7,000 27 292 0
2022-05-15 05:41:54 GMT 53.247025 -2.590341 7,000 26 292 0
2022-05-15 05:41:52 GMT 53.244507 -2.592460 7,000 26 292 0
2022-05-15 05:41:51 GMT 53.243179 -2.593558 7,000 26 292 0
2022-05-15 05:41:49 GMT 53.240799 -2.595598 7,000 26 292 0
2022-05-15 05:41:47 GMT 53.237411 -2.598345 7,000 26 292 0
2022-05-15 05:41:45 GMT 53.236084 -2.599444 7,000 26 291 0
2022-05-15 05:41:44 GMT 53.234848 -2.600464 7,000 26 291 0
2022-05-15 05:41:42 GMT 53.232422 -2.602426 7,000 26 291 0
2022-05-15 05:41:41 GMT 53.231274 -2.603356 7,000 26 291 0
2022-05-15 05:41:40 GMT 53.228619 -2.605537 7,000 26 291 0
2022-05-15 05:41:38 GMT 53.227386 -2.606585 7,000 26 291 0
2022-05-15 05:41:37 GMT 53.226059 -2.607683 7,000 26 291 0
2022-05-15 05:41:36 GMT 53.223591 -2.609738 7,000 26 291 0
2022-05-15 05:41:34 GMT 53.222900 -2.610273 7,000 26 291 0
2022-05-15 05:41:33 GMT 53.221172 -2.611757 7,000 26 291 0
2022-05-15 05:41:32 GMT 53.220100 -2.612646 7,000 26 290 0
2022-05-15 05:41:30 GMT 53.217636 -2.614668 7,000 26 290 -64
2022-05-15 05:41:29 GMT 53.216537 -2.615531 7,000 26 290 0
2022-05-15 05:41:27 GMT 53.214096 -2.617573 7,000 26 290 0
2022-05-15 05:41:26 GMT 53.212746 -2.618704 7,000 26 290 0
2022-05-15 05:41:25 GMT 53.211594 -2.619611 7,000 26 290 0
2022-05-15 05:41:23 GMT 53.209213 -2.621652 7,000 26 289 0
2022-05-15 05:41:22 GMT 53.208042 -2.622582 7,000 26 289 0
2022-05-15 05:41:20 GMT 53.205734 -2.624477 7,000 26 289 -64
2022-05-15 05:41:19 GMT 53.204407 -2.625575 7,000 26 289 -64
2022-05-15 05:41:17 GMT 53.201981 -2.627537 7,000 26 290 -64
2022-05-15 05:41:16 GMT 53.200733 -2.628560 7,000 26 290 -64
2022-05-15 05:41:15 GMT 53.198315 -2.630499 7,000 26 290 0
2022-05-15 05:41:13 GMT 53.197243 -2.631387 7,000 26 290 0
2022-05-15 05:41:12 GMT 53.195984 -2.632481 7,000 26 290 0
2022-05-15 05:41:11 GMT 53.193558 -2.634443 7,000 26 290 0
2022-05-15 05:41:09 GMT 53.192459 -2.635306 7,000 26 290 0
2022-05-15 05:41:08 GMT 53.191193 -2.636315 7,000 26 291 0
2022-05-15 05:41:07 GMT 53.188843 -2.638210 7,000 26 291 0
2022-05-15 05:41:05 GMT 53.187561 -2.639304 7,000 25 291 0
2022-05-15 05:41:03 GMT 53.185280 -2.641081 7,000 25 291 0
2022-05-15 05:41:02 GMT 53.183990 -2.642133 7,000 25 292 0
2022-05-15 05:41:01 GMT 53.182720 -2.643101 7,000 25 292 0
2022-05-15 05:41:00 GMT 53.180191 -2.645115 7,000 24 293 0
2022-05-15 05:40:58 GMT 53.178955 -2.646057 7,000 24 292 0
2022-05-15 05:40:57 GMT 53.177551 -2.647059 7,000 23 293 64
2022-05-15 05:40:54 GMT 53.174744 -2.649118 7,000 22 293 64
2022-05-15 05:40:53 GMT 53.173550 -2.649886 7,000 21 294 64
2022-05-15 05:40:51 GMT 53.171448 -2.651236 7,000 21 294 64
2022-05-15 05:40:49 GMT 53.168709 -2.652875 7,000 17 295 64
2022-05-15 05:40:48 GMT 53.167465 -2.653591 7,000 15 295 0
2022-05-15 05:40:46 GMT 53.164799 -2.654814 7,000 12 296 0
2022-05-15 05:40:45 GMT 53.163307 -2.655299 7,000 10 296 0
2022-05-15 05:40:44 GMT 53.159317 -2.656416 7,000 5 297 0
2022-05-15 05:40:42 GMT 53.159317 -2.656416 7,000 5 297 0
2022-05-15 05:40:41 GMT 53.157852 -2.656651 7,000 3 296 0
2022-05-15 05:40:40 GMT 53.155380 -2.656887 7,000 0 297 0
2022-05-15 05:40:38 GMT 53.153950 -2.656914 7,000 359 297 0
2022-05-15 05:40:37 GMT 53.152134 -2.656833 7,000 356 296 0
2022-05-15 05:40:35 GMT 53.149338 -2.656573 7,000 354 296 0
2022-05-15 05:40:33 GMT 53.146549 -2.655945 7,000 351 297 0
2022-05-15 05:40:32 GMT 53.144405 -2.655379 7,000 347 296 0
2022-05-15 05:40:30 GMT 53.143158 -2.654925 7,000 346 296 0
2022-05-15 05:40:28 GMT 53.140228 -2.653591 7,000 342 296 0
2022-05-15 05:40:26 GMT 53.137192 -2.651825 7,000 341 296 0
2022-05-15 05:40:25 GMT 53.136448 -2.651340 7,000 337 295 0
2022-05-15 05:40:24 GMT 53.135101 -2.650452 7,000 336 294 0
2022-05-15 05:40:23 GMT 53.131348 -2.647313 7,000 333 295 0
2022-05-15 05:40:21 GMT 53.131348 -2.647313 7,000 331 294 0
2022-05-15 05:40:20 GMT 53.130157 -2.646214 7,000 329 294 0
2022-05-15 05:40:18 GMT 53.128021 -2.644070 7,000 326 294 64
2022-05-15 05:40:16 GMT 53.124298 -2.639546 7,000 321 293 0
2022-05-15 05:40:14 GMT 53.123199 -2.637974 7,000 319 293 0
2022-05-15 05:40:12 GMT 53.121552 -2.635507 7,000 316 292 64
2022-05-15 05:40:10 GMT 53.119549 -2.632195 7,000 313 291 64
2022-05-15 05:40:09 GMT 53.118668 -2.630598 7,000 311 292 64
2022-05-15 05:40:07 GMT 53.116699 -2.626674 7,000 308 291 0
2022-05-15 05:40:06 GMT 53.115917 -2.625005 7,000 304 290 -64
2022-05-15 05:40:05 GMT 53.113678 -2.619533 7,000 302 289 -64
2022-05-15 05:40:03 GMT 53.113678 -2.619533 7,000 302 289 -64
2022-05-15 05:40:01 GMT 53.112194 -2.615473 7,000 300 289 0
2022-05-15 05:39:59 GMT 53.110840 -2.611529 7,000 300 289 0
2022-05-15 05:39:57 GMT 53.109585 -2.607718 7,000 300 289 0
2022-05-15 05:39:56 GMT 53.108982 -2.606022 7,000 300 289 0
2022-05-15 05:39:55 GMT 53.107681 -2.602269 7,000 300 289 0
2022-05-15 05:39:53 GMT 53.107086 -2.600464 7,000 300 289 0
2022-05-15 05:39:52 GMT 53.106468 -2.598671 7,000 300 289 0
2022-05-15 05:39:51 GMT 53.105488 -2.595762 7,000 300 289 0
2022-05-15 05:39:49 GMT 53.104477 -2.592773 7,000 300 289 0
2022-05-15 05:39:47 GMT 53.102882 -2.588007 7,000 300 288 0
2022-05-15 05:39:45 GMT 53.101810 -2.584938 7,000 300 288 0
2022-05-15 05:39:44 GMT 53.101112 -2.582837 7,000 300 288 0
2022-05-15 05:39:43 GMT 53.100464 -2.580899 7,000 300 288 0
2022-05-15 05:39:41 GMT 53.099064 -2.576859 7,000 300 288 0
2022-05-15 05:39:39 GMT 53.096970 -2.570720 7,000 300 288 0
2022-05-15 05:39:36 GMT 53.095947 -2.567650 7,000 300 287 0
2022-05-15 05:39:34 GMT 53.094589 -2.563629 7,000 300 287 -64
2022-05-15 05:39:32 GMT 53.093338 -2.559893 7,000 300 287 -64
2022-05-15 05:39:31 GMT 53.091896 -2.555655 7,000 300 287 -64
2022-05-15 05:39:29 GMT 53.091202 -2.553635 7,000 300 287 -64
2022-05-15 05:39:28 GMT 53.090424 -2.551346 7,000 300 287 -64
2022-05-15 05:39:27 GMT 53.089142 -2.547531 7,000 300 287 -64
2022-05-15 05:39:24 GMT 53.087845 -2.543806 7,000 300 287 -128
2022-05-15 05:39:22 GMT 53.086636 -2.540118 7,025 300 287 -128
2022-05-15 05:39:20 GMT 53.084656 -2.534332 7,025 300 287 -192
2022-05-15 05:39:18 GMT 53.083969 -2.532349 7,025 300 287 -256
2022-05-15 05:39:16 GMT 53.082733 -2.528763 7,050 300 287 -320
2022-05-15 05:39:15 GMT 53.082027 -2.526542 7,050 300 286 -384
2022-05-15 05:39:14 GMT 53.080818 -2.523089 7,050 300 286 -512
2022-05-15 05:39:11 GMT 53.079529 -2.519150 7,075 300 287 -704
2022-05-15 05:39:09 GMT 53.078163 -2.515163 7,100 300 288 -896
2022-05-15 05:39:08 GMT 53.077515 -2.513123 7,125 300 288 -960
2022-05-15 05:39:07 GMT 53.076874 -2.511215 7,125 300 288 -960
2022-05-15 05:39:05 GMT 53.075546 -2.507401 7,175 300 288 -1024
2022-05-15 05:39:04 GMT 53.074951 -2.505511 7,175 300 288 -1024
2022-05-15 05:39:03 GMT 53.074207 -2.503392 7,200 300 288 -1024
2022-05-15 05:39:01 GMT 53.072994 -2.499704 7,225 300 288 -1024
2022-05-15 05:39:00 GMT 53.072346 -2.497820 7,250 300 288 -1024
2022-05-15 05:38:58 GMT 53.071060 -2.494049 7,275 300 288 -1024
2022-05-15 05:38:56 GMT 53.069782 -2.490208 7,325 300 288 -1024
2022-05-15 05:38:55 GMT 53.067810 -2.484360 7,350 300 288 -1024
2022-05-15 05:38:53 GMT 53.067810 -2.484360 7,375 300 288 -1024
2022-05-15 05:38:52 GMT 53.067131 -2.482361 7,375 300 288 -1024
2022-05-15 05:38:50 GMT 53.066479 -2.480399 7,400 300 288 -1024
2022-05-15 05:38:49 GMT 53.065128 -2.476318 7,425 300 288 -1024
2022-05-15 05:38:47 GMT 53.064377 -2.474136 7,450 300 288 -1024
2022-05-15 05:38:46 GMT 53.063824 -2.472473 7,475 300 288 -1024
2022-05-15 05:38:44 GMT 53.062382 -2.468236 7,500 300 288 -1024
2022-05-15 05:38:43 GMT 53.061859 -2.466583 7,525 300 288 -1024
2022-05-15 05:38:41 GMT 53.060566 -2.462821 7,550 300 288 -1024
2022-05-15 05:38:39 GMT 53.057915 -2.454895 7,625 300 288 -1024
2022-05-15 05:38:36 GMT 53.056961 -2.452087 7,650 300 288 -1024
2022-05-15 05:38:33 GMT 53.055260 -2.446969 7,700 299 289 -1024
2022-05-15 05:38:31 GMT 53.054005 -2.443281 7,700 299 289 -1024
2022-05-15 05:38:30 GMT 53.053391 -2.441406 7,725 299 289 -1024
2022-05-15 05:38:29 GMT 53.050873 -2.433853 7,775 299 288 -1024
2022-05-15 05:38:27 GMT 53.050873 -2.433853 7,800 299 288 -1024
2022-05-15 05:38:25 GMT 53.049580 -2.429862 7,850 299 288 -1024
2022-05-15 05:38:23 GMT 53.048882 -2.427743 7,850 299 288 -1024
2022-05-15 05:38:22 GMT 53.047623 -2.423935 7,875 299 288 -1024
2022-05-15 05:38:20 GMT 53.046936 -2.421799 7,900 299 288 -1024
2022-05-15 05:38:19 GMT 53.046322 -2.419974 7,925 299 288 -1024
2022-05-15 05:38:18 GMT 53.045700 -2.418137 7,950 299 288 -1024
2022-05-15 05:38:17 GMT 53.044327 -2.413864 7,975 299 288 -1024
2022-05-15 05:38:15 GMT 53.043686 -2.411957 8,000 299 287 -1024
2022-05-15 05:38:14 GMT 53.042366 -2.407968 8,025 299 287 -1024
2022-05-15 05:38:12 GMT 53.041718 -2.405930 8,050 299 287 -960
2022-05-15 05:38:11 GMT 53.041122 -2.404175 8,075 299 287 -960
2022-05-15 05:38:10 GMT 53.039932 -2.400436 8,075 299 287 -960
2022-05-15 05:38:08 GMT 53.039291 -2.398394 8,125 299 287 -960
2022-05-15 05:38:07 GMT 53.038742 -2.396774 8,125 299 287 -960
2022-05-15 05:38:05 GMT 53.037415 -2.392731 8,175 299 287 -960
2022-05-15 05:38:04 GMT 53.036777 -2.390703 8,175 299 287 -960
2022-05-15 05:38:02 GMT 53.035427 -2.386623 8,200 299 287 -960
2022-05-15 05:38:01 GMT 53.034824 -2.384661 8,250 299 287 -960
2022-05-15 05:38:00 GMT 53.034172 -2.382699 8,250 299 287 -960
2022-05-15 05:37:58 GMT 53.033054 -2.379246 8,275 299 287 -960
2022-05-15 05:37:57 GMT 53.032078 -2.376343 8,300 299 287 -960
2022-05-15 05:37:55 GMT 53.030819 -2.372419 8,300 299 287 -960
2022-05-15 05:37:54 GMT 53.030262 -2.370693 8,325 299 287 -960
2022-05-15 05:37:53 GMT 53.029610 -2.368574 8,350 299 287 -960
2022-05-15 05:37:51 GMT 53.028534 -2.365417 8,375 299 287 -960
2022-05-15 05:37:50 GMT 53.027931 -2.363552 8,400 299 287 -960
2022-05-15 05:37:49 GMT 53.027000 -2.360648 8,425 299 287 -960
2022-05-15 05:37:47 GMT 53.025841 -2.356960 8,450 299 287 -960
2022-05-15 05:37:46 GMT 53.025280 -2.355233 8,475 299 287 -960
2022-05-15 05:37:45 GMT 53.024117 -2.351702 8,500 299 287 -960
2022-05-15 05:37:43 GMT 53.023453 -2.349701 8,525 299 287 -960
2022-05-15 05:37:42 GMT 53.022812 -2.347621 8,550 299 287 -960
2022-05-15 05:37:41 GMT 53.021530 -2.343674 8,575 299 288 -960
2022-05-15 05:37:39 GMT 53.020859 -2.341579 8,600 299 288 -960
2022-05-15 05:37:38 GMT 53.019653 -2.337799 8,600 299 288 -960
2022-05-15 05:37:36 GMT 53.018993 -2.335772 8,650 299 288 -960
2022-05-15 05:37:35 GMT 53.018326 -2.333755 8,650 299 288 -960
2022-05-15 05:37:34 GMT 53.017040 -2.329729 8,675 299 288 -960
2022-05-15 05:37:32 GMT 53.016357 -2.327728 8,700 299 288 -896
2022-05-15 05:37:31 GMT 53.015644 -2.325492 8,725 299 288 -896
2022-05-15 05:37:29 GMT 53.014618 -2.322353 8,750 299 289 -960
2022-05-15 05:37:28 GMT 53.013920 -2.320234 8,775 299 289 -960
2022-05-15 05:37:27 GMT 53.013317 -2.318272 8,775 299 289 -960
2022-05-15 05:37:25 GMT 53.012009 -2.314224 8,800 299 289 -960
2022-05-15 05:37:24 GMT 53.011414 -2.312469 8,825 299 290 -960
2022-05-15 05:37:23 GMT 53.010040 -2.308197 8,850 299 290 -960
2022-05-15 05:37:21 GMT 53.009357 -2.306109 8,875 299 290 -960
2022-05-15 05:37:20 GMT 53.008289 -2.302813 8,900 299 291 -960
2022-05-15 05:37:18 GMT 53.007339 -2.299957 8,925 299 291 -960
2022-05-15 05:37:17 GMT 53.006985 -2.298811 8,925 299 291 -960
2022-05-15 05:37:16 GMT 53.005447 -2.294102 8,950 299 292 -960
2022-05-15 05:37:14 GMT 53.004822 -2.292175 8,975 299 293 -960
2022-05-15 05:37:13 GMT 53.004192 -2.290179 9,000 299 293 -960
2022-05-15 05:37:12 GMT 53.002899 -2.286301 9,025 299 294 -960
2022-05-15 05:37:10 GMT 53.002258 -2.284317 9,050 299 294 -960
2022-05-15 05:37:09 GMT 53.000935 -2.280291 9,050 299 295 -960
2022-05-15 05:37:07 GMT 53.000282 -2.278251 9,100 299 295 -960
2022-05-15 05:37:06 GMT 52.999630 -2.276289 9,100 299 295 -960
2022-05-15 05:37:04 GMT 52.998421 -2.272522 9,125 299 295 -960
2022-05-15 05:37:03 GMT 52.997768 -2.270482 9,150 299 297 -960
2022-05-15 05:37:02 GMT 52.997025 -2.268284 9,175 299 297 -960
2022-05-15 05:37:00 GMT 52.995720 -2.264282 9,200 299 297 -960
2022-05-15 05:36:59 GMT 52.994370 -2.260359 9,250 299 298 -960
2022-05-15 05:36:57 GMT 52.993698 -2.258224 9,250 299 298 -960
2022-05-15 05:36:56 GMT 52.992367 -2.254316 9,300 300 298 -960
2022-05-15 05:36:54 GMT 52.991684 -2.252197 9,300 300 298 -1024
2022-05-15 05:36:53 GMT 52.990459 -2.248509 9,325 300 299 -1024
2022-05-15 05:36:51 GMT 52.989716 -2.246399 9,350 300 299 -1024
2022-05-15 05:36:50 GMT 52.988411 -2.242545 9,375 300 300 -1024
2022-05-15 05:36:48 GMT 52.987701 -2.240448 9,400 300 300 -1024
2022-05-15 05:36:47 GMT 52.987061 -2.238617 9,425 300 300 -1024
2022-05-15 05:36:46 GMT 52.986374 -2.236633 9,425 300 300 -1024
2022-05-15 05:36:44 GMT 52.984955 -2.232437 9,475 300 301 -1024
2022-05-15 05:36:43 GMT 52.984222 -2.230303 9,475 300 301 -1024
2022-05-15 05:36:41 GMT 52.982822 -2.226301 9,500 300 301 -1024
2022-05-15 05:36:40 GMT 52.982025 -2.223969 9,550 301 301 -960
2022-05-15 05:36:39 GMT 52.981339 -2.221985 9,550 301 302 -1024
2022-05-15 05:36:37 GMT 52.980125 -2.218532 9,575 301 302 -960
2022-05-15 05:36:36 GMT 52.979195 -2.215864 9,600 301 302 -896
2022-05-15 05:36:34 GMT 52.977951 -2.212372 9,625 301 302 -960
2022-05-15 05:36:33 GMT 52.977127 -2.210007 9,650 301 302 -896
2022-05-15 05:36:32 GMT 52.975746 -2.206055 9,675 301 302 -896
2022-05-15 05:36:30 GMT 52.975021 -2.203979 9,700 301 302 -896
2022-05-15 05:36:29 GMT 52.974243 -2.201767 9,700 301 302 -832
2022-05-15 05:36:27 GMT 52.972916 -2.197952 9,725 300 302 -832
2022-05-15 05:36:26 GMT 52.972164 -2.195853 9,750 300 301 -768
2022-05-15 05:36:25 GMT 52.971420 -2.193656 9,775 300 302 -768
2022-05-15 05:36:23 GMT 52.970215 -2.190094 9,800 300 302 -832
2022-05-15 05:36:22 GMT 52.969482 -2.187881 9,800 299 301 -832
2022-05-15 05:36:20 GMT 52.968021 -2.183297 9,850 298 301 -768
2022-05-15 05:36:19 GMT 52.967697 -2.182159 9,850 297 300 -704
2022-05-15 05:36:18 GMT 52.966995 -2.179844 9,850 296 300 -768
2022-05-15 05:36:16 GMT 52.965832 -2.175685 9,875 292 298 -832
2022-05-15 05:36:15 GMT 52.965271 -2.173462 9,900 290 297 -832
2022-05-15 05:36:14 GMT 52.964855 -2.171448 9,900 290 297 -832
2022-05-15 05:36:13 GMT 52.963737 -2.165798 9,925 287 296 -768
2022-05-15 05:36:11 GMT 52.963737 -2.165798 9,950 285 295 -704
2022-05-15 05:36:09 GMT 52.963074 -2.161560 9,975 282 293 -576
2022-05-15 05:36:08 GMT 52.962528 -2.156773 9,975 281 293 -448
2022-05-15 05:36:06 GMT 52.962433 -2.155533 9,975 279 293 -448
2022-05-15 05:36:05 GMT 52.962250 -2.153320 10,000 275 292 -320
2022-05-15 05:36:04 GMT 52.962013 -2.148769 10,000 272 292 -192
2022-05-15 05:36:02 GMT 52.961975 -2.145996 10,000 270 291 -128
2022-05-15 05:36:01 GMT 52.962021 -2.141342 10,000 267 290 0
2022-05-15 05:35:59 GMT 52.962063 -2.139430 10,000 265 290 0
2022-05-15 05:35:58 GMT 52.962204 -2.137146 10,000 264 290 0
2022-05-15 05:35:56 GMT 52.962570 -2.132492 10,000 259 289 64
2022-05-15 05:35:54 GMT 52.963806 -2.123718 10,000 253 287 64
2022-05-15 05:35:52 GMT 52.963806 -2.123718 10,000 253 287 64
2022-05-15 05:35:51 GMT 52.964157 -2.121695 10,000 252 287 0
2022-05-15 05:35:49 GMT 52.964996 -2.117920 10,000 248 286 0
2022-05-15 05:35:48 GMT 52.965508 -2.115731 10,000 246 286 0
2022-05-15 05:35:47 GMT 52.966003 -2.113876 10,000 245 285 -64
2022-05-15 05:35:44 GMT 52.967556 -2.108904 10,000 241 285 -64
2022-05-15 05:35:43 GMT 52.968658 -2.105865 10,000 236 285 0
2022-05-15 05:35:42 GMT 52.969666 -2.103271 10,000 236 285 0
2022-05-15 05:35:41 GMT 52.970440 -2.101371 10,000 234 285 0
2022-05-15 05:35:39 GMT 52.971542 -2.099075 10,000 231 283 0
2022-05-15 05:35:38 GMT 52.972351 -2.097525 10,000 229 282 0
2022-05-15 05:35:37 GMT 52.975285 -2.092346 10,000 226 282 0
2022-05-15 05:35:35 GMT 52.975285 -2.092346 10,000 222 282 0
2022-05-15 05:35:34 GMT 52.977329 -2.089286 10,000 220 281 0
2022-05-15 05:35:32 GMT 52.978363 -2.087860 10,000 218 281 64
2022-05-15 05:35:31 GMT 52.979416 -2.086563 10,000 215 280 64
2022-05-15 05:35:30 GMT 52.980331 -2.085419 10,000 215 280 64
2022-05-15 05:35:29 GMT 52.982685 -2.082851 10,000 212 279 64
2022-05-15 05:35:27 GMT 52.983261 -2.082291 10,000 210 278 0
2022-05-15 05:35:25 GMT 52.985573 -2.080183 10,000 208 278 0
2022-05-15 05:35:24 GMT 52.986736 -2.079241 10,000 204 278 0
2022-05-15 05:35:22 GMT 52.989395 -2.077408 10,000 201 278 0
2022-05-15 05:35:20 GMT 52.991959 -2.076035 10,000 197 278 0
2022-05-15 05:35:19 GMT 52.993195 -2.075424 9,975 195 277 0
2022-05-15 05:35:18 GMT 52.995766 -2.074454 10,000 192 277 64
2022-05-15 05:35:16 GMT 52.996948 -2.074051 10,000 190 276 64
2022-05-15 05:35:15 GMT 52.998322 -2.073669 10,000 188 276 64
2022-05-15 05:35:13 GMT 53.000282 -2.073356 10,000 185 275 64
2022-05-15 05:35:12 GMT 53.001678 -2.073199 10,000 183 275 128
2022-05-15 05:35:11 GMT 53.004272 -2.073059 10,000 178 274 128
2022-05-15 05:35:09 GMT 53.005692 -2.073135 10,000 176 273 0
2022-05-15 05:35:07 GMT 53.008148 -2.073434 9,975 173 273 -64
2022-05-15 05:35:04 GMT 53.012386 -2.074533 10,000 165 273 -128
2022-05-15 05:35:02 GMT 53.017365 -2.076887 10,000 162 273 -256
2022-05-15 05:35:00 GMT 53.017365 -2.076887 10,000 161 273 -192
2022-05-15 05:34:58 GMT 53.018578 -2.077593 10,000 160 273 -64
2022-05-15 05:34:57 GMT 53.021976 -2.079712 10,000 158 273 -128
2022-05-15 05:34:56 GMT 53.021976 -2.079712 10,000 158 273 -64
2022-05-15 05:34:55 GMT 53.024441 -2.081281 10,000 159 271 0
2022-05-15 05:34:52 GMT 53.026154 -2.082367 10,025 159 270 0
2022-05-15 05:34:50 GMT 53.028538 -2.083871 10,000 159 270 64
2022-05-15 05:34:49 GMT 53.029751 -2.084656 10,000 159 270 64
2022-05-15 05:34:48 GMT 53.030914 -2.085362 10,000 159 270 0
2022-05-15 05:34:46 GMT 53.033295 -2.086868 10,000 158 270 -64
2022-05-15 05:34:45 GMT 53.034439 -2.087631 10,000 158 270 -64
2022-05-15 05:34:44 GMT 53.036034 -2.088658 10,000 158 270 0
2022-05-15 05:34:41 GMT 53.042953 -2.093048 10,000 159 270 0
2022-05-15 05:34:38 GMT 53.046021 -2.094955 10,000 159 270 0
2022-05-15 05:34:35 GMT 53.046021 -2.094955 10,000 159 271 0
2022-05-15 05:34:33 GMT 53.047810 -2.096113 10,000 159 271 0
2022-05-15 05:34:31 GMT 53.054123 -2.100143 10,000 159 272 0
2022-05-15 05:34:28 GMT 53.054123 -2.100143 10,000 159 274 0
2022-05-15 05:34:25 GMT 53.059662 -2.103653 10,000 158 274 0
2022-05-15 05:34:21 GMT 53.062134 -2.105255 10,000 158 275 0
2022-05-15 05:34:18 GMT 53.066944 -2.108355 10,000 158 275 0
2022-05-15 05:34:15 GMT 53.071655 -2.111359 10,000 158 275 0
2022-05-15 05:34:13 GMT 53.074299 -2.113063 10,000 158 275 0
2022-05-15 05:34:11 GMT 53.074299 -2.113063 10,000 158 276 0
2022-05-15 05:34:08 GMT 53.078720 -2.115967 10,000 158 276 0
2022-05-15 05:34:05 GMT 53.081635 -2.117844 10,000 158 276 0
2022-05-15 05:34:03 GMT 53.083649 -2.119141 10,000 158 277 0
2022-05-15 05:34:01 GMT 53.087193 -2.121381 10,000 158 277 0
2022-05-15 05:33:58 GMT 53.089737 -2.123108 10,000 158 277 0
2022-05-15 05:33:55 GMT 53.093849 -2.125776 10,000 158 278 64
2022-05-15 05:33:53 GMT 53.095528 -2.126905 10,000 158 278 0
2022-05-15 05:33:51 GMT 53.098412 -2.128763 10,000 158 278 0
2022-05-15 05:33:48 GMT 53.103535 -2.132155 10,000 158 278 0
2022-05-15 05:33:45 GMT 53.105816 -2.133690 10,000 158 278 0
2022-05-15 05:33:43 GMT 53.107586 -2.134821 10,000 158 278 0
2022-05-15 05:33:41 GMT 53.110977 -2.137155 10,000 157 278 0
2022-05-15 05:33:38 GMT 53.114456 -2.139430 10,000 157 278 0
2022-05-15 05:33:35 GMT 53.119408 -2.142819 10,000 157 278 0
2022-05-15 05:33:33 GMT 53.122330 -2.144767 10,000 157 278 0
2022-05-15 05:33:31 GMT 53.122330 -2.144767 10,000 157 278 0
2022-05-15 05:33:28 GMT 53.125671 -2.147042 10,000 157 278 0
2022-05-15 05:33:25 GMT 53.129883 -2.149927 10,000 157 278 -64
2022-05-15 05:33:23 GMT 53.131622 -2.151123 10,000 157 278 -64
2022-05-15 05:33:21 GMT 53.134003 -2.152771 10,000 157 278 -64
2022-05-15 05:33:18 GMT 53.138397 -2.155753 10,000 157 278 -64
2022-05-15 05:33:15 GMT 53.141510 -2.157872 10,000 157 278 -64
2022-05-15 05:33:13 GMT 53.143387 -2.159127 10,000 157 278 128
2022-05-15 05:33:11 GMT 53.145996 -2.160932 10,000 157 278 0
2022-05-15 05:33:08 GMT 53.150085 -2.163741 10,000 157 278 192
2022-05-15 05:33:05 GMT 53.153343 -2.165922 10,000 157 278 256
2022-05-15 05:33:02 GMT 53.156555 -2.168103 9,975 157 279 512
2022-05-15 05:32:59 GMT 53.160141 -2.170527 9,900 158 280 768
2022-05-15 05:32:56 GMT 53.164215 -2.173253 9,900 158 281 960
2022-05-15 05:32:53 GMT 53.167263 -2.175212 9,850 158 281 1152
2022-05-15 05:32:50 GMT 53.171638 -2.178120 9,725 159 283 1344
2022-05-15 05:32:47 GMT 53.178314 -2.182199 9,675 159 285 1600
2022-05-15 05:32:44 GMT 53.178314 -2.182199 9,650 160 285 1664
2022-05-15 05:32:42 GMT 53.180904 -2.183775 9,550 163 288 2368
2022-05-15 05:32:39 GMT 53.185867 -2.186515 9,425 163 288 2432
2022-05-15 05:32:36 GMT 53.189003 -2.187976 9,350 167 287 2624
2022-05-15 05:32:33 GMT 53.192825 -2.189418 9,225 170 286 2624
2022-05-15 05:32:30 GMT 53.196545 -2.190157 8,900 184 282 2240
2022-05-15 05:32:27 GMT 53.201435 -2.190399 8,850 186 281 2304
2022-05-15 05:32:24 GMT 53.203995 -2.190157 8,875 185 281 2240
2022-05-15 05:32:22 GMT 53.207394 -2.189753 8,675 186 280 2368
2022-05-15 05:32:19 GMT 53.210743 -2.189268 8,625 186 278 2496
2022-05-15 05:32:16 GMT 53.215164 -2.188555 8,550 186 277 2624
2022-05-15 05:32:13 GMT 53.222900 -2.187456 8,375 186 275 2624
2022-05-15 05:32:10 GMT 53.222900 -2.187456 8,250 186 274 2432
2022-05-15 05:32:07 GMT 53.225967 -2.187006 8,150 185 272 2304
2022-05-15 05:32:04 GMT 53.229599 -2.186441 8,075 185 270 2304
2022-05-15 05:32:02 GMT 53.231323 -2.186201 7,975 185 268 2240
2022-05-15 05:32:00 GMT 53.235229 -2.185714 7,850 185 266 2304
2022-05-15 05:31:57 GMT 53.238373 -2.185259 7,750 185 265 2496
2022-05-15 05:31:54 GMT 53.242126 -2.184710 7,675 185 263 2688
2022-05-15 05:31:52 GMT 53.244633 -2.184341 7,575 185 262 2816
2022-05-15 05:31:48 GMT 53.249634 -2.183611 7,325 186 261 2880
2022-05-15 05:31:45 GMT 53.253021 -2.183140 7,175 186 260 2816
2022-05-15 05:31:42 GMT 53.256550 -2.182644 7,025 186 259 2816
2022-05-15 05:31:39 GMT 53.259624 -2.182159 6,925 186 258 2752
2022-05-15 05:31:36 GMT 53.264511 -2.181432 6,775 186 257 2752
2022-05-15 05:31:32 GMT 53.269547 -2.180629 5,725 187 252 3776
2022-05-15 05:31:29 GMT 53.276150 -2.179494 6,425 186 254 3136
2022-05-15 05:31:26 GMT 53.276150 -2.179494 6,250 186 253 3264
2022-05-15 05:31:23 GMT 53.278477 -2.179170 6,200 186 253 3328
2022-05-15 05:31:21 GMT 53.283970 -2.178201 6,075 186 253 3456
2022-05-15 05:31:19 GMT 53.283970 -2.178201 5,800 187 252 3648
2022-05-15 05:31:16 GMT 53.286896 -2.177647 5,700 187 253 3776
2022-05-15 05:31:13 GMT 53.289742 -2.177151 5,600 187 253 3776
2022-05-15 05:31:11 GMT 53.292210 -2.176666 5,475 187 253 3904
2022-05-15 05:31:09 GMT 53.295868 -2.175921 5,175 188 255 3904
2022-05-15 05:31:06 GMT 53.299622 -2.175136 5,025 188 255 3840
2022-05-15 05:31:02 GMT 53.303833 -2.174194 4,750 189 256 3392
2022-05-15 05:30:59 GMT 53.309326 -2.172939 4,600 189 256 2880
2022-05-15 05:30:56 GMT 53.313580 -2.171819 4,475 191 250 3008
2022-05-15 05:30:53 GMT 53.313580 -2.171819 4,425 190 253 2560
2022-05-15 05:30:51 GMT 53.315369 -2.171369 4,350 190 253 2944
2022-05-15 05:30:49 GMT 53.317627 -2.170769 4,150 190 251 2944
2022-05-15 05:30:46 GMT 53.321457 -2.169643 3,950 191 250 3072
2022-05-15 05:30:43 GMT 53.325119 -2.168544 3,800 191 248 3200
2022-05-15 05:30:40 GMT 53.329422 -2.167210 3,700 191 248 3456
2022-05-15 05:30:36 GMT 53.334106 -2.165841 3,400 189 248 3392
2022-05-15 05:30:33 GMT 53.338623 -2.164872 3,250 184 247 3008
2022-05-15 05:30:31 GMT 53.338623 -2.164872 3,150 184 247 3008
2022-05-15 05:30:28 GMT 53.345901 -2.165327 2,975 172 242 2368
2022-05-15 05:30:25 GMT 53.345901 -2.165327 2,950 166 239 1984
2022-05-15 05:30:22 GMT 53.349060 -2.166425 2,850 160 235 1792
2022-05-15 05:30:19 GMT 53.352264 -2.168152 2,750 156 232 1664
2022-05-15 05:30:16 GMT 53.354828 -2.169957 2,625 151 228 1600
2022-05-15 05:30:13 GMT 53.357620 -2.172468 2,625 147 223 1728
2022-05-15 05:30:11 GMT 53.359943 -2.174889 2,500 146 220 1728
2022-05-15 05:30:08 GMT 53.361923 -2.177176 2,450 144 216 1728
2022-05-15 05:30:05 GMT 53.364365 -2.180140 2,375 142 213 1600
2022-05-15 05:30:02 GMT 53.366322 -2.182725 2,300 138 207 1152
2022-05-15 05:29:59 GMT 53.368603 -2.186118 2,225 132 200 576
2022-05-15 05:29:56 GMT 53.370792 -2.189753 2,225 130 195 384
2022-05-15 05:29:52 GMT 53.373276 -2.194990 2,175 122 187 1024
2022-05-15 05:29:46 GMT 53.375771 -2.201951 2,075 112 182 1152
2022-05-15 05:29:43 GMT 53.376797 -2.205990 2,025 108 180 1152
2022-05-15 05:29:41 GMT 53.377167 -2.208090 2,000 102 179 1088
2022-05-15 05:29:40 GMT 53.377350 -2.209351 1,950 99 178 0
2022-05-15 05:29:39 GMT 53.377586 -2.211483 1,950 97 177 1024
2022-05-15 05:29:37 GMT 53.377728 -2.215280 1,900 89 175 1024
2022-05-15 05:29:35 GMT 53.377716 -2.216649 1,875 86 174 1088
2022-05-15 05:29:33 GMT 53.377579 -2.219238 1,850 83 174 1152
2022-05-15 05:29:31 GMT 53.376755 -2.224653 1,775 72 172 1088
2022-05-15 05:29:29 GMT 53.376755 -2.224653 1,775 69 171 1088
2022-05-15 05:29:28 GMT 53.376480 -2.225830 1,750 66 170 1088
2022-05-15 05:29:25 GMT 53.375492 -2.229174 1,700 58 168 1024
2022-05-15 05:29:24 GMT 53.374924 -2.230852 1,675 55 167 1152
2022-05-15 05:29:23 GMT 53.374008 -2.232893 1,625 52 165 1216
2022-05-15 05:29:21 GMT 53.373585 -2.233860 1,625 52 164 1280
2022-05-15 05:29:20 GMT 53.372818 -2.235561 1,575 52 162 1408
2022-05-15 05:29:18 GMT 53.372314 -2.236581 1,550 51 161 1408
2022-05-15 05:29:17 GMT 53.371861 -2.237576 1,525 51 159 1344
2022-05-15 05:29:15 GMT 53.370987 -2.239406 1,475 51 158 1344
2022-05-15 05:29:14 GMT 53.370323 -2.240807 1,450 51 157 1344
2022-05-15 05:29:13 GMT 53.369934 -2.241603 1,425 51 155 1408
2022-05-15 05:29:11 GMT 53.369114 -2.243311 1,375 51 152 1728
2022-05-15 05:29:10 GMT 53.368649 -2.244281 1,350 50 152 1984
2022-05-15 05:29:09 GMT 53.368195 -2.245213 1,300 51 151 2240
2022-05-15 05:29:07 GMT 53.367279 -2.247175 1,225 51 151 2496
2022-05-15 05:29:06 GMT 53.366821 -2.248038 1,175 50 152 2496
2022-05-15 05:29:05 GMT 53.366455 -2.248901 1,150 50 152 2560
2022-05-15 05:29:03 GMT 53.365482 -2.250824 1,050 50 152 2624
2022-05-15 05:29:02 GMT 53.365017 -2.251713 1,000 50 153 2624
2022-05-15 05:28:59 GMT 53.364086 -2.253651 875 50 153 2624
2022-05-15 05:28:56 GMT 53.362381 -2.257141 750 50 154 2560
2022-05-15 05:28:52 GMT 53.360550 -2.260922 575 50 155 2176
2022-05-15 05:28:49 GMT 53.359589 -2.262870 500 50 154 2112
2022-05-15 05:28:46 GMT 53.357849 -2.266415 350 50 155 2240
2022-05-15 05:28:43 GMT 53.356567 -2.269069 250 51 155 1920
2022-05-15 05:28:32 GMT 53.351990 -2.278643 125 50 134 128
2022-05-15 05:28:22 GMT 53.348545 -2.285745 0 50 96
2022-05-15 05:28:11 GMT 53.346210 -2.290569 0 50 46
2022-05-15 05:28:02 GMT 53.345501 -2.292023 0 56 9
2022-05-15 05:27:53 GMT 53.345341 -2.292415 0 92 6
2022-05-15 05:27:37 GMT 53.345501 -2.292945 0 143 8
2022-05-15 05:27:29 GMT 53.345768 -2.293234 0 160 10
2022-05-15 05:26:38 GMT 53.347424 -2.292454 0 230 11
2022-05-15 05:26:27 GMT 53.347870 -2.291552 0 230 22
2022-05-15 05:26:05 GMT 53.349331 -2.288812 0 225 22
2022-05-15 05:26:01 GMT 53.349586 -2.288374 0 225 22
2022-05-15 05:25:50 GMT 53.350342 -2.287059 0 227 20
2022-05-15 05:25:32 GMT 53.351311 -2.285096 0 230 19
2022-05-15 05:25:28 GMT 53.351482 -2.284732 0 230 19
2022-05-15 05:25:20 GMT 53.351948 -2.283783 0 230 19
2022-05-15 05:25:11 GMT 53.352448 -2.282834 0 222 17
2022-05-15 05:25:09 GMT 53.352619 -2.282586 0 216 18
2022-05-15 05:24:57 GMT 53.353333 -2.281905 0 196 16
2022-05-15 05:24:51 GMT 53.353741 -2.281683 0 188 15
2022-05-15 05:24:46 GMT 53.354095 -2.281605 0 185 14
2022-05-15 05:24:41 GMT 53.354519 -2.281507 0 196 15
2022-05-15 05:24:31 GMT 53.355034 -2.281174 0 210 14
2022-05-15 05:24:21 GMT 53.355549 -2.280467 0 230 15
2022-05-15 05:24:09 GMT 53.356033 -2.279502 0 227 12
2022-05-15 05:23:56 GMT 53.356613 -2.278896 0 185 14
2022-05-15 05:23:50 GMT 53.357037 -2.278819 0 185 16
2022-05-15 05:23:33 GMT 53.358189 -2.278613 0 185 16
2022-05-15 05:23:30 GMT 53.358467 -2.278564 0 185 14
2022-05-15 05:23:26 GMT 53.358662 -2.278525 0 185 14
2022-05-15 05:23:11 GMT 53.359577 -2.278368 0 185 14
2022-05-15 05:22:58 GMT 53.360420 -2.278350 0 157 14
2022-05-15 05:22:40 GMT 53.361282 -2.279506 0 135 14
2022-05-15 05:22:29 GMT 53.361752 -2.280291 0 135 14
2022-05-15 05:22:19 GMT 53.362186 -2.281017 0 135 12
2022-05-15 05:21:49 GMT 53.363102 -2.282586 0 135 10
2022-05-15 05:21:41 GMT 53.363319 -2.282959 0 135 9
2022-05-15 05:21:22 GMT 53.363716 -2.283621 0 135 7
2022-05-15 05:21:19 GMT 53.363777 -2.283724 0 135 5
2022-05-15 05:21:08 GMT 53.363949 -2.283999 0 135 6
2022-05-15 05:20:56 GMT 53.364166 -2.284372 0 135 7
2022-05-15 05:20:49 GMT 53.364319 -2.284611 0 135 7
2022-05-15 05:20:43 GMT 53.364441 -2.284842 0 135 7
2022-05-15 05:20:38 GMT 53.364555 -2.285019 0 135 8
2022-05-15 05:20:29 GMT 53.364807 -2.285451 0 135 9
2022-05-15 05:20:19 GMT 53.365089 -2.285924 0 135 9
2022-05-15 05:20:08 GMT 53.365391 -2.286449 0 132 10
2022-05-15 05:19:57 GMT 53.365700 -2.287059 0 106 10
2022-05-15 05:19:49 GMT 53.365826 -2.287687 0 112 10
2022-05-15 05:19:39 GMT 53.365986 -2.288327 0 132 9
2022-05-15 05:19:28 GMT 53.366264 -2.288812 0 151 9
2022-05-15 05:19:18 GMT 53.366634 -2.289034 0 140 9
2022-05-15 05:19:09 GMT 53.366905 -2.289458 0 135 9
2022-05-15 05:18:58 GMT 53.367149 -2.289882 0 135 8
2022-05-15 05:18:48 GMT 53.367393 -2.290266 0 154 7
2022-05-15 05:18:37 GMT 53.367760 -2.290394 0 199 10
2022-05-15 05:18:28 GMT 53.368149 -2.290165 0 210 13
2022-05-15 05:18:18 GMT 53.368549 -2.289629 0 225 11
2022-05-15 05:18:07 GMT 53.368870 -2.289074 0 225 9
2022-05-15 05:17:58 GMT 53.369110 -2.288688 0 225 7
2022-05-15 05:17:48 GMT 53.369293 -2.288374 0 225 5
2022-05-15 05:17:37 GMT 53.369453 -2.288125 0 225 4
2022-05-15 05:17:18 GMT 53.369511 -2.288024 0 225 0
2022-05-15 05:16:02 GMT 53.369511 -2.288021 0 225 0
2022-05-15 05:15:37 GMT 53.369511 -2.288024 0 225 0
2022-05-15 05:15:23 GMT 53.369511 -2.288021 0 225 0
2022-05-15 05:15:13 GMT 53.369511 -2.288024 0 225 0
2022-05-15 05:14:36 GMT 53.369511 -2.288021 0 225 0
2022-05-15 05:14:25 GMT 53.369556 -2.287942 0 225 2
2022-05-15 05:14:14 GMT 53.369652 -2.287782 0 225 3
2022-05-15 05:14:06 GMT 53.369728 -2.287667 0 222 3
2022-05-15 05:13:55 GMT 53.369808 -2.287530 0 219 3
2022-05-15 05:13:46 GMT 53.369888 -2.287393 0 213 3
2022-05-15 05:13:36 GMT 53.369965 -2.287277 0 196 2
2022-05-15 05:13:16 GMT 53.370129 -2.287156 0 149 3
2022-05-15 05:13:06 GMT 53.370197 -2.287197 0 140 0
2022-05-15 05:12:49 GMT 53.370163 -2.287135 0 140 1
2022-05-15 05:12:46 GMT 53.370140 -2.287115 0 140 2
2022-05-15 05:12:35 GMT 53.370083 -2.287020 0 137 2
2022-05-15 05:12:26 GMT 53.370022 -2.286933 0 137 2
2022-05-15 05:12:14 GMT 53.369930 -2.286792 0 137 3
2022-05-15 05:12:05 GMT 53.369869 -2.286691 0 135 3

Making use of Plane Finder data

You are free to use the raw flight data, aircraft information and images provided in this report for your own purposes provided the data is correctly attributed to Plane Finder. We ask that you please credit Plane Finder and link to planefinder.net in close proximity to the content.

Optionally one of the following logos (no smaller then 150x24px) can be used and must link to planefinder.net

Embedding the Plane Finder map

You are welcome to embed the Plane Finder playback map on your website to offer visitors a more interactive experience. We suggest using the following HTML code:

<iframe src="//planefinder.net/data/report/BY2772-YL-LCT-7700-squawk-2022-05-15/map" width="800" height="600" seamless="seamless"></iframe>

Where our data comes from

Plane Finder has a global network of data feeds and antenna radars that receive data broadcast directly from aircraft. The primary technologies used are ADS-B and MLAT. We also show feeds from the FAA and a FLARM glider feed.

Click here to find out more about the Plane Finder network.

How we collect our data